<?xml version="1.0" encoding="UTF-8" standalone="no" ?>
<gpx xmlns="http://www.topografix.com/GPX/1/1" xmlns:xsi="http://www.w3.org/2001/XMLSchema-instance" xsi:schemaLocation="http://www.topografix.com/GPX/1/1 http://www.topografix.com/GPX/1/1/gpx.xsd" version="1.1" creator="VisuGPX - https://www.visugpx.com">
  <metadata>
    <name>SAINT SORLIN</name>
  </metadata>
  <wpt lat="45.22369" lon="6.21707">
    <ele>1671.671875</ele>
    <name><![CDATA[Camping]]></name>
    <type><![CDATA[user]]></type>
  </wpt>
  <trk>
    <name><![CDATA[+ crêtes toussuire-SSSS-col croix de fer]]></name>
    <trkseg>
      <trkpt lat="45.22738" lon="6.20364">
        <ele>2059.5234375</ele>
      </trkpt>
      <trkpt lat="45.22762" lon="6.20262">
        <ele>2061.375</ele>
      </trkpt>
      <trkpt lat="45.22768" lon="6.20252">
        <ele>2063.6875</ele>
      </trkpt>
      <trkpt lat="45.22775" lon="6.2025">
        <ele>2062.94140625</ele>
      </trkpt>
      <trkpt lat="45.2279" lon="6.20236">
        <ele>2061.671875</ele>
      </trkpt>
      <trkpt lat="45.2281" lon="6.20225">
        <ele>2056.5546875</ele>
      </trkpt>
      <trkpt lat="45.22852" lon="6.20199">
        <ele>2052.36328125</ele>
      </trkpt>
      <trkpt lat="45.22863" lon="6.2018">
        <ele>2050.9765625</ele>
      </trkpt>
      <trkpt lat="45.22882" lon="6.20168">
        <ele>2054.6171875</ele>
      </trkpt>
      <trkpt lat="45.22906" lon="6.20137">
        <ele>2052.97265625</ele>
      </trkpt>
      <trkpt lat="45.22953" lon="6.20086">
        <ele>2050.359375</ele>
      </trkpt>
      <trkpt lat="45.23003" lon="6.20002">
        <ele>2042.609375</ele>
      </trkpt>
      <trkpt lat="45.23047" lon="6.19934">
        <ele>2038.21875</ele>
      </trkpt>
      <trkpt lat="45.2308" lon="6.19905">
        <ele>2036.6015625</ele>
      </trkpt>
      <trkpt lat="45.23134" lon="6.1985">
        <ele>2026.1171875</ele>
      </trkpt>
      <trkpt lat="45.23155" lon="6.19835">
        <ele>2023.234375</ele>
      </trkpt>
      <trkpt lat="45.23191" lon="6.19814">
        <ele>2018.55859375</ele>
      </trkpt>
      <trkpt lat="45.23212" lon="6.19794">
        <ele>2018.55859375</ele>
      </trkpt>
      <trkpt lat="45.23276" lon="6.19743">
        <ele>2029.22998</ele>
        <time>2019-07-24T06:33:27Z</time>
      </trkpt>
      <trkpt lat="45.23298" lon="6.1972">
        <ele>2029.848145</ele>
        <time>2019-07-24T06:33:45Z</time>
      </trkpt>
      <trkpt lat="45.23311" lon="6.19707">
        <ele>2032.563477</ele>
        <time>2019-07-24T06:46:43Z</time>
      </trkpt>
      <trkpt lat="45.23333" lon="6.19695">
        <ele>2038.55127</ele>
        <time>2019-07-24T06:47:05Z</time>
      </trkpt>
      <trkpt lat="45.23341" lon="6.19683">
        <ele>2037.578735</ele>
        <time>2019-07-24T06:47:17Z</time>
      </trkpt>
      <trkpt lat="45.23386" lon="6.19648">
        <ele>2038.831665</ele>
        <time>2019-07-24T06:48:11Z</time>
      </trkpt>
      <trkpt lat="45.23453" lon="6.19628">
        <ele>2042.59668</ele>
        <time>2019-07-24T06:50:32Z</time>
      </trkpt>
      <trkpt lat="45.23534" lon="6.19642">
        <ele>2044.954346</ele>
        <time>2019-07-24T06:51:30Z</time>
      </trkpt>
      <trkpt lat="45.23558" lon="6.19653">
        <ele>2045.864014</ele>
        <time>2019-07-24T06:51:49Z</time>
      </trkpt>
      <trkpt lat="45.2364" lon="6.19721">
        <ele>2058.312256</ele>
        <time>2019-07-24T06:53:03Z</time>
      </trkpt>
      <trkpt lat="45.23653" lon="6.19742">
        <ele>2063.422119</ele>
        <time>2019-07-24T06:53:18Z</time>
      </trkpt>
      <trkpt lat="45.23664" lon="6.19768">
        <ele>2066.749268</ele>
        <time>2019-07-24T06:53:36Z</time>
      </trkpt>
      <trkpt lat="45.237" lon="6.19836">
        <ele>2075.271484</ele>
        <time>2019-07-24T06:54:25Z</time>
      </trkpt>
      <trkpt lat="45.23709" lon="6.19861">
        <ele>2077.652832</ele>
        <time>2019-07-24T06:54:43Z</time>
      </trkpt>
      <trkpt lat="45.23736" lon="6.19909">
        <ele>2083.829102</ele>
        <time>2019-07-24T06:55:19Z</time>
      </trkpt>
      <trkpt lat="45.23755" lon="6.19932">
        <ele>2086.91333</ele>
        <time>2019-07-24T06:55:38Z</time>
      </trkpt>
      <trkpt lat="45.23774" lon="6.1995">
        <ele>2090.523438</ele>
        <time>2019-07-24T06:55:55Z</time>
      </trkpt>
      <trkpt lat="45.23787" lon="6.19977">
        <ele>2094.483398</ele>
        <time>2019-07-24T06:56:15Z</time>
      </trkpt>
      <trkpt lat="45.23795" lon="6.20002">
        <ele>2097.600098</ele>
        <time>2019-07-24T06:56:30Z</time>
      </trkpt>
      <trkpt lat="45.23808" lon="6.20019">
        <ele>2098.730713</ele>
        <time>2019-07-24T06:56:46Z</time>
      </trkpt>
      <trkpt lat="45.23843" lon="6.20035">
        <ele>2100.105469</ele>
        <time>2019-07-24T06:57:15Z</time>
      </trkpt>
      <trkpt lat="45.239" lon="6.20084">
        <ele>2106.958008</ele>
        <time>2019-07-24T06:58:11Z</time>
      </trkpt>
      <trkpt lat="45.23912" lon="6.20099">
        <ele>2109.002441</ele>
        <time>2019-07-24T06:58:24Z</time>
      </trkpt>
      <trkpt lat="45.23923" lon="6.20132">
        <ele>2111.409424</ele>
        <time>2019-07-24T06:58:44Z</time>
      </trkpt>
      <trkpt lat="45.2394" lon="6.20155">
        <ele>2112.992432</ele>
        <time>2019-07-24T06:59:01Z</time>
      </trkpt>
      <trkpt lat="45.23962" lon="6.20177">
        <ele>2115.052979</ele>
        <time>2019-07-24T06:59:19Z</time>
      </trkpt>
      <trkpt lat="45.23982" lon="6.20212">
        <ele>2117.431152</ele>
        <time>2019-07-24T06:59:40Z</time>
      </trkpt>
      <trkpt lat="45.24005" lon="6.20289">
        <ele>2125.428955</ele>
        <time>2019-07-24T07:01:06Z</time>
      </trkpt>
      <trkpt lat="45.24043" lon="6.20363">
        <ele>2131.374756</ele>
        <time>2019-07-24T07:01:51Z</time>
      </trkpt>
      <trkpt lat="45.24058" lon="6.20389">
        <ele>2131.591797</ele>
        <time>2019-07-24T07:02:09Z</time>
      </trkpt>
      <trkpt lat="45.24101" lon="6.20496">
        <ele>2141.770752</ele>
        <time>2019-07-24T07:02:56Z</time>
      </trkpt>
      <trkpt lat="45.24126" lon="6.20566">
        <ele>2149.192627</ele>
        <time>2019-07-24T07:03:32Z</time>
      </trkpt>
      <trkpt lat="45.24219" lon="6.20667">
        <ele>2159.470459</ele>
        <time>2019-07-24T07:05:07Z</time>
      </trkpt>
      <trkpt lat="45.24227" lon="6.20678">
        <ele>2160.80835</ele>
        <time>2019-07-24T07:05:18Z</time>
      </trkpt>
      <trkpt lat="45.24239" lon="6.2071">
        <ele>2164.104736</ele>
        <time>2019-07-24T07:05:42Z</time>
      </trkpt>
      <trkpt lat="45.24249" lon="6.20762">
        <ele>2172.645264</ele>
        <time>2019-07-24T07:11:37Z</time>
      </trkpt>
      <trkpt lat="45.24279" lon="6.2079">
        <ele>2176.143555</ele>
        <time>2019-07-24T07:11:47Z</time>
      </trkpt>
      <trkpt lat="45.24304" lon="6.20806">
        <ele>2178.337402</ele>
        <time>2019-07-24T07:11:57Z</time>
      </trkpt>
      <trkpt lat="45.24361" lon="6.20849">
        <ele>2181.779541</ele>
        <time>2019-07-24T07:12:31Z</time>
      </trkpt>
      <trkpt lat="45.24426" lon="6.20921">
        <ele>2192.113281</ele>
        <time>2019-07-24T07:13:37Z</time>
      </trkpt>
      <trkpt lat="45.24445" lon="6.20934">
        <ele>2194.703125</ele>
        <time>2019-07-24T07:13:53Z</time>
      </trkpt>
      <trkpt lat="45.24497" lon="6.20981">
        <ele>2203.332031</ele>
        <time>2019-07-24T07:14:46Z</time>
      </trkpt>
      <trkpt lat="45.24568" lon="6.2102">
        <ele>2216.218018</ele>
        <time>2019-07-24T07:15:50Z</time>
      </trkpt>
      <trkpt lat="45.24588" lon="6.21037">
        <ele>2218.767334</ele>
        <time>2019-07-24T07:16:09Z</time>
      </trkpt>
      <trkpt lat="45.24633" lon="6.21107">
        <ele>2223.815918</ele>
        <time>2019-07-24T07:17:08Z</time>
      </trkpt>
      <trkpt lat="45.24638" lon="6.2111">
        <ele>2222.280762</ele>
        <time>2019-07-24T07:17:13Z</time>
      </trkpt>
      <trkpt lat="45.24641" lon="6.21109">
        <ele>2221.248535</ele>
        <time>2019-07-24T07:17:16Z</time>
      </trkpt>
      <trkpt lat="45.24646" lon="6.21094">
        <ele>2218.547852</ele>
        <time>2019-07-24T07:17:30Z</time>
      </trkpt>
      <trkpt lat="45.24627" lon="6.21167">
        <ele>2235.220703</ele>
        <time>2019-07-24T07:30:02Z</time>
      </trkpt>
      <trkpt lat="45.24619" lon="6.21181">
        <ele>2240.303955</ele>
        <time>2019-07-24T07:30:13Z</time>
      </trkpt>
      <trkpt lat="45.24605" lon="6.21193">
        <ele>2245.061279</ele>
        <time>2019-07-24T07:30:30Z</time>
      </trkpt>
      <trkpt lat="45.24421" lon="6.21244">
        <ele>2302.902588</ele>
        <time>2019-07-24T07:37:32Z</time>
      </trkpt>
      <trkpt lat="45.24417" lon="6.21247">
        <ele>2304.32251</ele>
        <time>2019-07-24T07:37:41Z</time>
      </trkpt>
      <trkpt lat="45.24349" lon="6.21362">
        <ele>2334.793213</ele>
        <time>2019-07-24T07:40:52Z</time>
      </trkpt>
      <trkpt lat="45.24359" lon="6.21371">
        <ele>2334.419189</ele>
        <time>2019-07-24T07:41:16Z</time>
      </trkpt>
      <trkpt lat="45.24462" lon="6.21447">
        <ele>2323.793457</ele>
        <time>2019-07-24T07:41:51Z</time>
      </trkpt>
      <trkpt lat="45.24476" lon="6.21451">
        <ele>2319.991211</ele>
        <time>2019-07-24T07:41:55Z</time>
      </trkpt>
      <trkpt lat="45.2448" lon="6.21457">
        <ele>2318.238037</ele>
        <time>2019-07-24T07:41:59Z</time>
      </trkpt>
      <trkpt lat="45.24482" lon="6.21476">
        <ele>2314.463867</ele>
        <time>2019-07-24T07:42:08Z</time>
      </trkpt>
      <trkpt lat="45.24507" lon="6.21487">
        <ele>2303.452637</ele>
        <time>2019-07-24T07:42:28Z</time>
      </trkpt>
      <trkpt lat="45.24541" lon="6.21526">
        <ele>2292.525391</ele>
        <time>2019-07-24T07:42:36Z</time>
      </trkpt>
      <trkpt lat="45.24565" lon="6.21564">
        <ele>2290.032715</ele>
        <time>2019-07-24T07:42:40Z</time>
      </trkpt>
      <trkpt lat="45.24578" lon="6.21599">
        <ele>2289.374023</ele>
        <time>2019-07-24T07:42:43Z</time>
      </trkpt>
      <trkpt lat="45.24599" lon="6.21627">
        <ele>2287.684082</ele>
        <time>2019-07-24T07:42:47Z</time>
      </trkpt>
      <trkpt lat="45.24627" lon="6.21649">
        <ele>2283.656006</ele>
        <time>2019-07-24T07:42:55Z</time>
      </trkpt>
      <trkpt lat="45.24645" lon="6.21659">
        <ele>2281.55249</ele>
        <time>2019-07-24T07:43:01Z</time>
      </trkpt>
      <trkpt lat="45.24656" lon="6.21669">
        <ele>2279.855469</ele>
        <time>2019-07-24T07:43:05Z</time>
      </trkpt>
      <trkpt lat="45.24662" lon="6.21684">
        <ele>2279.072998</ele>
        <time>2019-07-24T07:43:09Z</time>
      </trkpt>
      <trkpt lat="45.24646" lon="6.21811">
        <ele>2269.98877</ele>
        <time>2019-07-24T07:43:20Z</time>
      </trkpt>
      <trkpt lat="45.24636" lon="6.21868">
        <ele>2264.806396</ele>
        <time>2019-07-24T07:43:24Z</time>
      </trkpt>
      <trkpt lat="45.24635" lon="6.21945">
        <ele>2260.26001</ele>
        <time>2019-07-24T07:43:31Z</time>
      </trkpt>
      <trkpt lat="45.2466" lon="6.22009">
        <ele>2254.204834</ele>
        <time>2019-07-24T07:43:37Z</time>
      </trkpt>
      <trkpt lat="45.24689" lon="6.22036">
        <ele>2251.464355</ele>
        <time>2019-07-24T07:43:42Z</time>
      </trkpt>
      <trkpt lat="45.24695" lon="6.22039">
        <ele>2251.048828</ele>
        <time>2019-07-24T07:43:43Z</time>
      </trkpt>
      <trkpt lat="45.24718" lon="6.22064">
        <ele>2247.974365</ele>
        <time>2019-07-24T07:43:47Z</time>
      </trkpt>
      <trkpt lat="45.24743" lon="6.2212">
        <ele>2243.193604</ele>
        <time>2019-07-24T07:43:53Z</time>
      </trkpt>
      <trkpt lat="45.24816" lon="6.22158">
        <ele>2247.11499</ele>
        <time>2019-07-24T07:45:00Z</time>
      </trkpt>
      <trkpt lat="45.249" lon="6.22181">
        <ele>2254.302002</ele>
        <time>2019-07-24T07:45:53Z</time>
      </trkpt>
      <trkpt lat="45.24923" lon="6.22195">
        <ele>2257.332275</ele>
        <time>2019-07-24T07:46:24Z</time>
      </trkpt>
      <trkpt lat="45.24959" lon="6.22222">
        <ele>2264.137939</ele>
        <time>2019-07-24T07:47:27Z</time>
      </trkpt>
      <trkpt lat="45.24972" lon="6.22257">
        <ele>2269.180908</ele>
        <time>2019-07-24T07:47:43Z</time>
      </trkpt>
      <trkpt lat="45.24976" lon="6.22276">
        <ele>2271.785889</ele>
        <time>2019-07-24T07:47:51Z</time>
      </trkpt>
      <trkpt lat="45.2497" lon="6.22306">
        <ele>2272.556152</ele>
        <time>2019-07-24T07:48:06Z</time>
      </trkpt>
      <trkpt lat="45.24965" lon="6.22317">
        <ele>2270.92627</ele>
        <time>2019-07-24T07:48:15Z</time>
      </trkpt>
      <trkpt lat="45.24966" lon="6.22322">
        <ele>2271.328613</ele>
        <time>2019-07-24T07:48:21Z</time>
      </trkpt>
      <trkpt lat="45.24967" lon="6.22319">
        <ele>2271.655029</ele>
        <time>2019-07-24T07:48:24Z</time>
      </trkpt>
      <trkpt lat="45.24965" lon="6.22303">
        <ele>2271.175049</ele>
        <time>2019-07-24T07:48:35Z</time>
      </trkpt>
      <trkpt lat="45.24964" lon="6.22306">
        <ele>2270.891357</ele>
        <time>2019-07-24T07:48:37Z</time>
      </trkpt>
      <trkpt lat="45.24968" lon="6.22312">
        <ele>2271.939941</ele>
        <time>2019-07-24T07:48:46Z</time>
      </trkpt>
      <trkpt lat="45.24969" lon="6.22332">
        <ele>2271.993652</ele>
        <time>2019-07-24T07:48:58Z</time>
      </trkpt>
      <trkpt lat="45.24978" lon="6.22357">
        <ele>2274.252441</ele>
        <time>2019-07-24T07:49:05Z</time>
      </trkpt>
      <trkpt lat="45.25012" lon="6.22433">
        <ele>2263.27002</ele>
        <time>2019-07-24T07:49:17Z</time>
      </trkpt>
      <trkpt lat="45.25053" lon="6.22496">
        <ele>2250.237061</ele>
        <time>2019-07-24T07:49:23Z</time>
      </trkpt>
      <trkpt lat="45.25098" lon="6.22589">
        <ele>2233.908447</ele>
        <time>2019-07-24T07:49:29Z</time>
      </trkpt>
      <trkpt lat="45.2516" lon="6.22738">
        <ele>2220.92627</ele>
        <time>2019-07-24T07:49:40Z</time>
      </trkpt>
      <trkpt lat="45.25194" lon="6.2277">
        <ele>2220.590088</ele>
        <time>2019-07-24T07:49:45Z</time>
      </trkpt>
      <trkpt lat="45.25226" lon="6.22766">
        <ele>2226.129883</ele>
        <time>2019-07-24T07:49:49Z</time>
      </trkpt>
      <trkpt lat="45.25264" lon="6.22783">
        <ele>2222.77002</ele>
        <time>2019-07-24T07:49:54Z</time>
      </trkpt>
      <trkpt lat="45.25283" lon="6.22803">
        <ele>2217.890869</ele>
        <time>2019-07-24T07:49:57Z</time>
      </trkpt>
      <trkpt lat="45.25329" lon="6.22825">
        <ele>2214.351318</ele>
        <time>2019-07-24T07:50:04Z</time>
      </trkpt>
      <trkpt lat="45.25364" lon="6.22853">
        <ele>2208.280518</ele>
        <time>2019-07-24T07:50:10Z</time>
      </trkpt>
      <trkpt lat="45.25382" lon="6.22893">
        <ele>2205.5896</ele>
        <time>2019-07-24T07:50:15Z</time>
      </trkpt>
      <trkpt lat="45.25421" lon="6.22938">
        <ele>2200.122803</ele>
        <time>2019-07-24T07:50:24Z</time>
      </trkpt>
      <trkpt lat="45.25439" lon="6.22933">
        <ele>2198.852295</ele>
        <time>2019-07-24T07:50:27Z</time>
      </trkpt>
      <trkpt lat="45.25488" lon="6.22941">
        <ele>2194.885742</ele>
        <time>2019-07-24T07:50:35Z</time>
      </trkpt>
      <trkpt lat="45.25512" lon="6.22951">
        <ele>2194.032471</ele>
        <time>2019-07-24T07:50:39Z</time>
      </trkpt>
      <trkpt lat="45.25523" lon="6.22964">
        <ele>2195.254395</ele>
        <time>2019-07-24T07:50:42Z</time>
      </trkpt>
      <trkpt lat="45.2554" lon="6.23016">
        <ele>2199.595947</ele>
        <time>2019-07-24T07:51:01Z</time>
      </trkpt>
      <trkpt lat="45.25533" lon="6.23019">
        <ele>2199.058105</ele>
        <time>2019-07-24T07:51:13Z</time>
      </trkpt>
      <trkpt lat="45.25525" lon="6.23112">
        <ele>2198.054932</ele>
        <time>2019-07-24T07:51:33Z</time>
      </trkpt>
      <trkpt lat="45.25518" lon="6.23132">
        <ele>2195.399902</ele>
        <time>2019-07-24T07:51:37Z</time>
      </trkpt>
      <trkpt lat="45.25515" lon="6.2315">
        <ele>2194.219971</ele>
        <time>2019-07-24T07:51:40Z</time>
      </trkpt>
      <trkpt lat="45.25518" lon="6.23177">
        <ele>2193.996094</ele>
        <time>2019-07-24T07:51:44Z</time>
      </trkpt>
      <trkpt lat="45.2554" lon="6.23267">
        <ele>2193.186035</ele>
        <time>2019-07-24T07:51:56Z</time>
      </trkpt>
      <trkpt lat="45.2554" lon="6.23292">
        <ele>2190.144043</ele>
        <time>2019-07-24T07:51:59Z</time>
      </trkpt>
      <trkpt lat="45.25537" lon="6.23315">
        <ele>2186.689697</ele>
        <time>2019-07-24T07:52:02Z</time>
      </trkpt>
      <trkpt lat="45.25539" lon="6.2333">
        <ele>2185.571045</ele>
        <time>2019-07-24T07:52:04Z</time>
      </trkpt>
      <trkpt lat="45.25545" lon="6.2334">
        <ele>2183.201416</ele>
        <time>2019-07-24T07:52:06Z</time>
      </trkpt>
      <trkpt lat="45.25553" lon="6.23344">
        <ele>2180.878174</ele>
        <time>2019-07-24T07:52:08Z</time>
      </trkpt>
      <trkpt lat="45.2556" lon="6.23339">
        <ele>2180.186279</ele>
        <time>2019-07-24T07:52:10Z</time>
      </trkpt>
      <trkpt lat="45.25591" lon="6.23294">
        <ele>2183.90625</ele>
        <time>2019-07-24T07:52:19Z</time>
      </trkpt>
      <trkpt lat="45.25644" lon="6.23275">
        <ele>2179.64624</ele>
        <time>2019-07-24T07:52:32Z</time>
      </trkpt>
      <trkpt lat="45.25681" lon="6.23286">
        <ele>2176.183105</ele>
        <time>2019-07-24T07:52:42Z</time>
      </trkpt>
      <trkpt lat="45.25724" lon="6.23309">
        <ele>2167.980469</ele>
        <time>2019-07-24T07:52:54Z</time>
      </trkpt>
      <trkpt lat="45.2573" lon="6.23307">
        <ele>2165.486816</ele>
        <time>2019-07-24T07:53:03Z</time>
      </trkpt>
      <trkpt lat="45.25738" lon="6.23282">
        <ele>2164.344238</ele>
        <time>2019-07-24T07:55:09Z</time>
      </trkpt>
      <trkpt lat="45.2575" lon="6.23267">
        <ele>2159.613037</ele>
        <time>2019-07-24T07:56:10Z</time>
      </trkpt>
      <trkpt lat="45.25772" lon="6.23255">
        <ele>2147.927002</ele>
        <time>2019-07-24T07:56:53Z</time>
      </trkpt>
      <trkpt lat="45.25796" lon="6.23261">
        <ele>2134.510742</ele>
        <time>2019-07-24T07:57:06Z</time>
      </trkpt>
      <trkpt lat="45.25846" lon="6.23294">
        <ele>2114.095947</ele>
        <time>2019-07-24T07:57:36Z</time>
      </trkpt>
      <trkpt lat="45.25877" lon="6.2332">
        <ele>2104.971191</ele>
        <time>2019-07-24T07:57:53Z</time>
      </trkpt>
      <trkpt lat="45.25905" lon="6.23352">
        <ele>2089.667236</ele>
        <time>2019-07-24T07:58:14Z</time>
      </trkpt>
      <trkpt lat="45.25928" lon="6.23372">
        <ele>2081.51123</ele>
        <time>2019-07-24T07:59:11Z</time>
      </trkpt>
      <trkpt lat="45.25941" lon="6.23376">
        <ele>2077.706543</ele>
        <time>2019-07-24T07:59:34Z</time>
      </trkpt>
      <trkpt lat="45.25955" lon="6.23391">
        <ele>2072.893799</ele>
        <time>2019-07-24T07:59:58Z</time>
      </trkpt>
      <trkpt lat="45.25961" lon="6.23394">
        <ele>2070.233887</ele>
        <time>2019-07-24T08:00:03Z</time>
      </trkpt>
      <trkpt lat="45.25971" lon="6.23407">
        <ele>2064.750977</ele>
        <time>2019-07-24T08:00:11Z</time>
      </trkpt>
      <trkpt lat="45.26017" lon="6.23449">
        <ele>2050.325439</ele>
        <time>2019-07-24T08:00:30Z</time>
      </trkpt>
      <trkpt lat="45.26036" lon="6.23471">
        <ele>2045.048218</ele>
        <time>2019-07-24T08:00:35Z</time>
      </trkpt>
      <trkpt lat="45.26054" lon="6.23498">
        <ele>2039.308472</ele>
        <time>2019-07-24T08:00:41Z</time>
      </trkpt>
      <trkpt lat="45.26084" lon="6.23549">
        <ele>2032.981079</ele>
        <time>2019-07-24T08:00:50Z</time>
      </trkpt>
      <trkpt lat="45.26119" lon="6.23626">
        <ele>2024.406982</ele>
        <time>2019-07-24T08:01:40Z</time>
      </trkpt>
      <trkpt lat="45.26184" lon="6.23754">
        <ele>2013.246826</ele>
        <time>2019-07-24T08:01:58Z</time>
      </trkpt>
      <trkpt lat="45.26297" lon="6.23943">
        <ele>2001.918579</ele>
        <time>2019-07-24T08:02:29Z</time>
      </trkpt>
      <trkpt lat="45.26319" lon="6.23966">
        <ele>1999.298096</ele>
        <time>2019-07-24T08:02:33Z</time>
      </trkpt>
      <trkpt lat="45.26354" lon="6.24027">
        <ele>1990.672852</ele>
        <time>2019-07-24T08:02:39Z</time>
      </trkpt>
      <trkpt lat="45.26372" lon="6.24039">
        <ele>1987.620117</ele>
        <time>2019-07-24T08:02:43Z</time>
      </trkpt>
      <trkpt lat="45.26383" lon="6.24042">
        <ele>1985.889404</ele>
        <time>2019-07-24T08:02:48Z</time>
      </trkpt>
      <trkpt lat="45.26409" lon="6.24055">
        <ele>1981.8573</ele>
        <time>2019-07-24T08:03:03Z</time>
      </trkpt>
      <trkpt lat="45.26429" lon="6.24076">
        <ele>1979.363037</ele>
        <time>2019-07-24T08:09:51Z</time>
      </trkpt>
      <trkpt lat="45.26454" lon="6.2411">
        <ele>1978.550903</ele>
        <time>2019-07-24T08:10:06Z</time>
      </trkpt>
      <trkpt lat="45.26472" lon="6.2415">
        <ele>1980.788696</ele>
        <time>2019-07-24T08:10:22Z</time>
      </trkpt>
      <trkpt lat="45.26512" lon="6.24188">
        <ele>1988.390747</ele>
        <time>2019-07-24T08:10:40Z</time>
      </trkpt>
      <trkpt lat="45.26537" lon="6.24227">
        <ele>1996.312012</ele>
        <time>2019-07-24T08:10:57Z</time>
      </trkpt>
      <trkpt lat="45.26557" lon="6.24273">
        <ele>2003.655762</ele>
        <time>2019-07-24T08:11:25Z</time>
      </trkpt>
      <trkpt lat="45.2658" lon="6.24304">
        <ele>2008.66626</ele>
        <time>2019-07-24T08:11:52Z</time>
      </trkpt>
      <trkpt lat="45.26642" lon="6.24362">
        <ele>2016.916504</ele>
        <time>2019-07-24T08:13:05Z</time>
      </trkpt>
      <trkpt lat="45.26698" lon="6.24409">
        <ele>2014.766235</ele>
        <time>2019-07-24T08:14:35Z</time>
      </trkpt>
      <trkpt lat="45.26746" lon="6.24464">
        <ele>2009.016113</ele>
        <time>2019-07-24T08:14:57Z</time>
      </trkpt>
      <trkpt lat="45.26866" lon="6.24707">
        <ele>1997.240723</ele>
        <time>2019-07-24T08:15:31Z</time>
      </trkpt>
      <trkpt lat="45.26893" lon="6.24752">
        <ele>2004.015747</ele>
        <time>2019-07-24T08:16:01Z</time>
      </trkpt>
      <trkpt lat="45.26917" lon="6.2477">
        <ele>2007.959229</ele>
        <time>2019-07-24T08:16:27Z</time>
      </trkpt>
      <trkpt lat="45.26947" lon="6.24783">
        <ele>2012.199341</ele>
        <time>2019-07-24T08:16:59Z</time>
      </trkpt>
      <trkpt lat="45.27011" lon="6.24827">
        <ele>2020.971558</ele>
        <time>2019-07-24T08:18:10Z</time>
      </trkpt>
      <trkpt lat="45.27027" lon="6.24848">
        <ele>2025.942261</ele>
        <time>2019-07-24T08:18:25Z</time>
      </trkpt>
      <trkpt lat="45.27039" lon="6.2487">
        <ele>2032.004639</ele>
        <time>2019-07-24T08:18:38Z</time>
      </trkpt>
      <trkpt lat="45.27057" lon="6.24912">
        <ele>2038.643311</ele>
        <time>2019-07-24T08:19:04Z</time>
      </trkpt>
      <trkpt lat="45.27093" lon="6.24967">
        <ele>2048.904541</ele>
        <time>2019-07-24T08:19:54Z</time>
      </trkpt>
      <trkpt lat="45.27115" lon="6.24989">
        <ele>2055.213867</ele>
        <time>2019-07-24T08:20:26Z</time>
      </trkpt>
      <trkpt lat="45.2715" lon="6.25036">
        <ele>2068.020264</ele>
        <time>2019-07-24T08:21:21Z</time>
      </trkpt>
      <trkpt lat="45.27169" lon="6.25078">
        <ele>2076.850098</ele>
        <time>2019-07-24T08:29:43Z</time>
      </trkpt>
      <trkpt lat="45.27198" lon="6.2513">
        <ele>2090.091553</ele>
        <time>2019-07-24T08:30:29Z</time>
      </trkpt>
      <trkpt lat="45.27208" lon="6.25158">
        <ele>2095.647705</ele>
        <time>2019-07-24T08:30:52Z</time>
      </trkpt>
      <trkpt lat="45.27216" lon="6.25208">
        <ele>2105.703857</ele>
        <time>2019-07-24T08:31:34Z</time>
      </trkpt>
      <trkpt lat="45.27263" lon="6.25316">
        <ele>2127.75</ele>
      </trkpt>
      <trkpt lat="45.27233" lon="6.25314">
        <ele>2132.34375</ele>
      </trkpt>
      <trkpt lat="45.27197" lon="6.25316">
        <ele>2133.66796875</ele>
      </trkpt>
      <trkpt lat="45.27163" lon="6.25309">
        <ele>2128.1484375</ele>
      </trkpt>
      <trkpt lat="45.27164" lon="6.25319">
        <ele>2129.6015625</ele>
      </trkpt>
      <trkpt lat="45.27213" lon="6.25428">
        <ele>2145.51953125</ele>
      </trkpt>
      <trkpt lat="45.27242" lon="6.25496">
        <ele>2144.953125</ele>
      </trkpt>
      <trkpt lat="45.27287" lon="6.25556">
        <ele>2148.51953125</ele>
      </trkpt>
      <trkpt lat="45.27303" lon="6.25569">
        <ele>2151.70703125</ele>
      </trkpt>
      <trkpt lat="45.27333" lon="6.25602">
        <ele>2157.29296875</ele>
      </trkpt>
      <trkpt lat="45.27353" lon="6.25688">
        <ele>2163.07421875</ele>
      </trkpt>
      <trkpt lat="45.27391" lon="6.25727">
        <ele>2166.0234375</ele>
      </trkpt>
      <trkpt lat="45.27436" lon="6.25761">
        <ele>2160.48046875</ele>
      </trkpt>
      <trkpt lat="45.27484" lon="6.258">
        <ele>2154.27734375</ele>
      </trkpt>
      <trkpt lat="45.27509" lon="6.25869">
        <ele>2150.55859375</ele>
      </trkpt>
      <trkpt lat="45.27502" lon="6.25874">
        <ele>2152.4921875</ele>
      </trkpt>
      <trkpt lat="45.2747" lon="6.25792">
        <ele>2163.84375</ele>
      </trkpt>
      <trkpt lat="45.27502" lon="6.25875">
        <ele>2152.3125</ele>
      </trkpt>
      <trkpt lat="45.27532" lon="6.25976">
        <ele>2141.328125</ele>
      </trkpt>
      <trkpt lat="45.2756" lon="6.26045">
        <ele>2140.3125</ele>
      </trkpt>
      <trkpt lat="45.27588" lon="6.26098">
        <ele>2137.7734375</ele>
      </trkpt>
      <trkpt lat="45.27616" lon="6.26165">
        <ele>2136.7890625</ele>
      </trkpt>
      <trkpt lat="45.27648" lon="6.26208">
        <ele>2140.08984375</ele>
      </trkpt>
      <trkpt lat="45.27687" lon="6.26276">
        <ele>2141.47265625</ele>
      </trkpt>
      <trkpt lat="45.27717" lon="6.26309">
        <ele>2142.09765625</ele>
      </trkpt>
      <trkpt lat="45.27758" lon="6.26347">
        <ele>2139.6171875</ele>
      </trkpt>
      <trkpt lat="45.27775" lon="6.26407">
        <ele>2139.25</ele>
      </trkpt>
      <trkpt lat="45.27807" lon="6.26459">
        <ele>2146.1796875</ele>
      </trkpt>
      <trkpt lat="45.27885" lon="6.26544">
        <ele>2154.09765625</ele>
      </trkpt>
      <trkpt lat="45.27807" lon="6.26459">
        <ele>2146.1796875</ele>
      </trkpt>
      <trkpt lat="45.27897" lon="6.26558">
        <ele>2156.48046875</ele>
      </trkpt>
      <trkpt lat="45.27906" lon="6.26579">
        <ele>2159.7734375</ele>
      </trkpt>
      <trkpt lat="45.27906" lon="6.26588">
        <ele>2160.546875</ele>
      </trkpt>
      <trkpt lat="45.27912" lon="6.26579">
        <ele>2157.41796875</ele>
      </trkpt>
      <trkpt lat="45.27919" lon="6.26607">
        <ele>2156.30078125</ele>
      </trkpt>
      <trkpt lat="45.27931" lon="6.26611">
        <ele>2148.921875</ele>
      </trkpt>
      <trkpt lat="45.2794" lon="6.26626">
        <ele>2142.49609375</ele>
      </trkpt>
      <trkpt lat="45.27957" lon="6.26637">
        <ele>2131.97265625</ele>
      </trkpt>
      <trkpt lat="45.27983" lon="6.26669">
        <ele>2123.37890625</ele>
      </trkpt>
      <trkpt lat="45.28002" lon="6.26699">
        <ele>2122.2578125</ele>
      </trkpt>
      <trkpt lat="45.28015" lon="6.26723">
        <ele>2112.87109375</ele>
      </trkpt>
      <trkpt lat="45.2803" lon="6.26729">
        <ele>2108.50390625</ele>
      </trkpt>
      <trkpt lat="45.28056" lon="6.26755">
        <ele>2104.89453125</ele>
      </trkpt>
      <trkpt lat="45.28075" lon="6.26761">
        <ele>2105.61328125</ele>
      </trkpt>
      <trkpt lat="45.28095" lon="6.26791">
        <ele>2106.59375</ele>
      </trkpt>
      <trkpt lat="45.28099" lon="6.26791">
        <ele>2106.17578125</ele>
      </trkpt>
      <trkpt lat="45.28142" lon="6.26813">
        <ele>2104.86328125</ele>
      </trkpt>
      <trkpt lat="45.28155" lon="6.26809">
        <ele>2104.18359375</ele>
      </trkpt>
      <trkpt lat="45.28165" lon="6.26811">
        <ele>2103.59765625</ele>
      </trkpt>
      <trkpt lat="45.28179" lon="6.26816">
        <ele>2103.25390625</ele>
      </trkpt>
      <trkpt lat="45.28183" lon="6.26817">
        <ele>2103.2578125</ele>
      </trkpt>
      <trkpt lat="45.28202" lon="6.26822">
        <ele>2102.71875</ele>
      </trkpt>
      <trkpt lat="45.28215" lon="6.26828">
        <ele>2104.203125</ele>
      </trkpt>
      <trkpt lat="45.28225" lon="6.26837">
        <ele>2107.375</ele>
      </trkpt>
      <trkpt lat="45.28236" lon="6.26832">
        <ele>2104.78515625</ele>
      </trkpt>
      <trkpt lat="45.28268" lon="6.26832">
        <ele>2102.68359375</ele>
      </trkpt>
      <trkpt lat="45.28288" lon="6.26826">
        <ele>2098.41796875</ele>
      </trkpt>
      <trkpt lat="45.28311" lon="6.26817">
        <ele>2093.28125</ele>
      </trkpt>
      <trkpt lat="45.28335" lon="6.26815">
        <ele>2088.359375</ele>
      </trkpt>
      <trkpt lat="45.28356" lon="6.26819">
        <ele>2083.18359375</ele>
      </trkpt>
      <trkpt lat="45.28371" lon="6.26826">
        <ele>2080.73046875</ele>
      </trkpt>
      <trkpt lat="45.28393" lon="6.26843">
        <ele>2079.6875</ele>
      </trkpt>
      <trkpt lat="45.28412" lon="6.2686">
        <ele>2077.13671875</ele>
      </trkpt>
      <trkpt lat="45.28416" lon="6.26871">
        <ele>2077.55859375</ele>
      </trkpt>
      <trkpt lat="45.28419" lon="6.26882">
        <ele>2078.7890625</ele>
      </trkpt>
      <trkpt lat="45.28423" lon="6.26907">
        <ele>2082.2109375</ele>
      </trkpt>
      <trkpt lat="45.28425" lon="6.26914">
        <ele>2082.25</ele>
      </trkpt>
      <trkpt lat="45.28434" lon="6.2692">
        <ele>2077.48828125</ele>
      </trkpt>
      <trkpt lat="45.28436" lon="6.26927">
        <ele>2077.44140625</ele>
      </trkpt>
      <trkpt lat="45.2844" lon="6.26927">
        <ele>2074.234375</ele>
      </trkpt>
      <trkpt lat="45.2844" lon="6.26922">
        <ele>2073.21875</ele>
      </trkpt>
      <trkpt lat="45.28438" lon="6.26918">
        <ele>2073.79296875</ele>
      </trkpt>
      <trkpt lat="45.28434" lon="6.26914">
        <ele>2075.9296875</ele>
      </trkpt>
      <trkpt lat="45.28427" lon="6.26905">
        <ele>2078.546875</ele>
      </trkpt>
      <trkpt lat="45.28429" lon="6.26873">
        <ele>2069.0859375</ele>
      </trkpt>
      <trkpt lat="45.28429" lon="6.26847">
        <ele>2060.5546875</ele>
      </trkpt>
      <trkpt lat="45.28425" lon="6.2683">
        <ele>2057.62109375</ele>
      </trkpt>
      <trkpt lat="45.28412" lon="6.26806">
        <ele>2058.92578125</ele>
      </trkpt>
      <trkpt lat="45.28401" lon="6.26796">
        <ele>2060.54296875</ele>
      </trkpt>
      <trkpt lat="45.28393" lon="6.26783">
        <ele>2058.55078125</ele>
      </trkpt>
      <trkpt lat="45.28389" lon="6.26761">
        <ele>2051.80078125</ele>
      </trkpt>
      <trkpt lat="45.28371" lon="6.26731">
        <ele>2045.56640625</ele>
      </trkpt>
      <trkpt lat="45.28346" lon="6.2671">
        <ele>2045</ele>
      </trkpt>
      <trkpt lat="45.28333" lon="6.26697">
        <ele>2043.7421875</ele>
      </trkpt>
      <trkpt lat="45.2832" lon="6.26695">
        <ele>2044.99609375</ele>
      </trkpt>
      <trkpt lat="45.28296" lon="6.26686">
        <ele>2040.37890625</ele>
      </trkpt>
      <trkpt lat="45.28307" lon="6.26673">
        <ele>2035.19140625</ele>
      </trkpt>
      <trkpt lat="45.2827" lon="6.26652">
        <ele>2024.2890625</ele>
      </trkpt>
      <trkpt lat="45.2832" lon="6.26611">
        <ele>2009.58984375</ele>
      </trkpt>
      <trkpt lat="45.28343" lon="6.26588">
        <ele>2000.84375</ele>
      </trkpt>
      <trkpt lat="45.28367" lon="6.26583">
        <ele>1997.51953125</ele>
      </trkpt>
      <trkpt lat="45.28331" lon="6.26558">
        <ele>1992.546875</ele>
      </trkpt>
      <trkpt lat="45.28339" lon="6.26538">
        <ele>1985.796875</ele>
      </trkpt>
      <trkpt lat="45.28373" lon="6.26534">
        <ele>1981.47265625</ele>
      </trkpt>
      <trkpt lat="45.28421" lon="6.26543">
        <ele>1972.47265625</ele>
      </trkpt>
      <trkpt lat="45.28449" lon="6.26555">
        <ele>1956.359375</ele>
      </trkpt>
      <trkpt lat="45.28466" lon="6.26592">
        <ele>1950.703125</ele>
      </trkpt>
      <trkpt lat="45.28459" lon="6.26549">
        <ele>1947.52734375</ele>
      </trkpt>
      <trkpt lat="45.28444" lon="6.2651">
        <ele>1946.73046875</ele>
      </trkpt>
      <trkpt lat="45.28426" lon="6.26476">
        <ele>1945.82421875</ele>
      </trkpt>
      <trkpt lat="45.28395" lon="6.26427">
        <ele>1938.63671875</ele>
      </trkpt>
      <trkpt lat="45.28393" lon="6.26414">
        <ele>1934.08203125</ele>
      </trkpt>
      <trkpt lat="45.28449" lon="6.26444">
        <ele>1922.796875</ele>
      </trkpt>
      <trkpt lat="45.28483" lon="6.2647">
        <ele>1911.9375</ele>
      </trkpt>
      <trkpt lat="45.2847" lon="6.26437">
        <ele>1909.2890625</ele>
      </trkpt>
      <trkpt lat="45.28414" lon="6.2633">
        <ele>1898.57421875</ele>
      </trkpt>
      <trkpt lat="45.28449" lon="6.26356">
        <ele>1893.1484375</ele>
      </trkpt>
      <trkpt lat="45.28481" lon="6.26386">
        <ele>1886.41015625</ele>
      </trkpt>
      <trkpt lat="45.28507" lon="6.26405">
        <ele>1877.640625</ele>
      </trkpt>
      <trkpt lat="45.28524" lon="6.26437">
        <ele>1878.55078125</ele>
      </trkpt>
      <trkpt lat="45.28543" lon="6.26455">
        <ele>1872.60546875</ele>
      </trkpt>
      <trkpt lat="45.28549" lon="6.26467">
        <ele>1869.8359375</ele>
      </trkpt>
      <trkpt lat="45.28556" lon="6.26452">
        <ele>1864.78125</ele>
      </trkpt>
      <trkpt lat="45.28564" lon="6.26452">
        <ele>1859.71484375</ele>
      </trkpt>
      <trkpt lat="45.28575" lon="6.26463">
        <ele>1853.14453125</ele>
      </trkpt>
      <trkpt lat="45.28584" lon="6.26465">
        <ele>1845.3046875</ele>
      </trkpt>
      <trkpt lat="45.28586" lon="6.26448">
        <ele>1841.33984375</ele>
      </trkpt>
      <trkpt lat="45.28571" lon="6.26433">
        <ele>1848.6015625</ele>
      </trkpt>
      <trkpt lat="45.28543" lon="6.26388">
        <ele>1848.54296875</ele>
      </trkpt>
      <trkpt lat="45.28543" lon="6.26367">
        <ele>1840.54296875</ele>
      </trkpt>
      <trkpt lat="45.28534" lon="6.26347">
        <ele>1839.25</ele>
      </trkpt>
      <trkpt lat="45.28522" lon="6.26298">
        <ele>1830.703125</ele>
      </trkpt>
      <trkpt lat="45.28517" lon="6.26259">
        <ele>1822.21484375</ele>
      </trkpt>
      <trkpt lat="45.28515" lon="6.26231">
        <ele>1816.23046875</ele>
      </trkpt>
      <trkpt lat="45.28504" lon="6.26193">
        <ele>1814.1171875</ele>
      </trkpt>
      <trkpt lat="45.28491" lon="6.26154">
        <ele>1812.5859375</ele>
      </trkpt>
      <trkpt lat="45.28487" lon="6.26131">
        <ele>1805.40234375</ele>
      </trkpt>
      <trkpt lat="45.28438" lon="6.26101">
        <ele>1788.33984375</ele>
      </trkpt>
      <trkpt lat="45.28464" lon="6.2609">
        <ele>1786.54296875</ele>
      </trkpt>
      <trkpt lat="45.28489" lon="6.26088">
        <ele>1788.15234375</ele>
      </trkpt>
      <trkpt lat="45.28511" lon="6.26103">
        <ele>1779.28125</ele>
      </trkpt>
      <trkpt lat="45.28524" lon="6.26124">
        <ele>1776.5625</ele>
      </trkpt>
      <trkpt lat="45.28532" lon="6.26156">
        <ele>1779.69921875</ele>
      </trkpt>
      <trkpt lat="45.28569" lon="6.26195">
        <ele>1762.16796875</ele>
      </trkpt>
      <trkpt lat="45.28594" lon="6.26231">
        <ele>1755.59765625</ele>
      </trkpt>
      <trkpt lat="45.28592" lon="6.26206">
        <ele>1747.63671875</ele>
      </trkpt>
      <trkpt lat="45.28586" lon="6.26184">
        <ele>1744.83984375</ele>
      </trkpt>
      <trkpt lat="45.28575" lon="6.26133">
        <ele>1736.60546875</ele>
      </trkpt>
      <trkpt lat="45.28569" lon="6.26083">
        <ele>1729.33203125</ele>
      </trkpt>
      <trkpt lat="45.28577" lon="6.26092">
        <ele>1724.21484375</ele>
      </trkpt>
      <trkpt lat="45.28588" lon="6.26133">
        <ele>1724.55859375</ele>
      </trkpt>
      <trkpt lat="45.28597" lon="6.2612">
        <ele>1711.59765625</ele>
      </trkpt>
      <trkpt lat="45.28592" lon="6.26086">
        <ele>1708.73828125</ele>
      </trkpt>
      <trkpt lat="45.28586" lon="6.26053">
        <ele>1708.2109375</ele>
      </trkpt>
      <trkpt lat="45.28584" lon="6.26023">
        <ele>1704.03125</ele>
      </trkpt>
      <trkpt lat="45.28594" lon="6.26034">
        <ele>1696.6484375</ele>
      </trkpt>
      <trkpt lat="45.28607" lon="6.26066">
        <ele>1691.1015625</ele>
      </trkpt>
      <trkpt lat="45.2862" lon="6.2609">
        <ele>1683.26171875</ele>
      </trkpt>
      <trkpt lat="45.28618" lon="6.26073">
        <ele>1682.33984375</ele>
      </trkpt>
      <trkpt lat="45.2861" lon="6.26025">
        <ele>1681.69140625</ele>
      </trkpt>
      <trkpt lat="45.28607" lon="6.2598">
        <ele>1675.0390625</ele>
      </trkpt>
      <trkpt lat="45.28601" lon="6.25929">
        <ele>1669.2890625</ele>
      </trkpt>
      <trkpt lat="45.28594" lon="6.25892">
        <ele>1665.03515625</ele>
      </trkpt>
      <trkpt lat="45.28588" lon="6.25867">
        <ele>1662.9921875</ele>
      </trkpt>
      <trkpt lat="45.28569" lon="6.25845">
        <ele>1665.2109375</ele>
      </trkpt>
      <trkpt lat="45.28556" lon="6.25843">
        <ele>1664.1953125</ele>
      </trkpt>
      <trkpt lat="45.28558" lon="6.25828">
        <ele>1658.04296875</ele>
      </trkpt>
      <trkpt lat="45.28573" lon="6.25822">
        <ele>1656.40625</ele>
      </trkpt>
      <trkpt lat="45.28597" lon="6.25819">
        <ele>1643.86328125</ele>
      </trkpt>
      <trkpt lat="45.2861" lon="6.25822">
        <ele>1637.5703125</ele>
      </trkpt>
      <trkpt lat="45.28627" lon="6.25849">
        <ele>1632.23046875</ele>
      </trkpt>
      <trkpt lat="45.28622" lon="6.25815">
        <ele>1629.6875</ele>
      </trkpt>
      <trkpt lat="45.28614" lon="6.25785">
        <ele>1628.09765625</ele>
      </trkpt>
      <trkpt lat="45.28622" lon="6.25785">
        <ele>1624.91796875</ele>
      </trkpt>
      <trkpt lat="45.28629" lon="6.258">
        <ele>1624.515625</ele>
      </trkpt>
      <trkpt lat="45.28642" lon="6.25822">
        <ele>1620.37890625</ele>
      </trkpt>
      <trkpt lat="45.28646" lon="6.25802">
        <ele>1617.10546875</ele>
      </trkpt>
      <trkpt lat="45.28644" lon="6.25783">
        <ele>1616.33203125</ele>
      </trkpt>
      <trkpt lat="45.2865" lon="6.25792">
        <ele>1614.83984375</ele>
      </trkpt>
      <trkpt lat="45.28657" lon="6.25817">
        <ele>1612.34375</ele>
      </trkpt>
      <trkpt lat="45.28667" lon="6.25841">
        <ele>1603.7890625</ele>
      </trkpt>
      <trkpt lat="45.28672" lon="6.25807">
        <ele>1599.64453125</ele>
      </trkpt>
      <trkpt lat="45.2867" lon="6.25779">
        <ele>1600.01171875</ele>
      </trkpt>
      <trkpt lat="45.28676" lon="6.25759">
        <ele>1591.62890625</ele>
      </trkpt>
      <trkpt lat="45.28676" lon="6.25721">
        <ele>1585.98046875</ele>
      </trkpt>
      <trkpt lat="45.28672" lon="6.25714">
        <ele>1587.7109375</ele>
      </trkpt>
      <trkpt lat="45.2867" lon="6.25697">
        <ele>1585.703125</ele>
      </trkpt>
      <trkpt lat="45.28667" lon="6.25689">
        <ele>1584.6484375</ele>
      </trkpt>
      <trkpt lat="45.28659" lon="6.25676">
        <ele>1585.36328125</ele>
      </trkpt>
      <trkpt lat="45.2865" lon="6.25669">
        <ele>1582.6953125</ele>
      </trkpt>
      <trkpt lat="45.28629" lon="6.25659">
        <ele>1574.23828125</ele>
      </trkpt>
      <trkpt lat="45.28629" lon="6.25654">
        <ele>1572.59765625</ele>
      </trkpt>
      <trkpt lat="45.28635" lon="6.25643">
        <ele>1570.27734375</ele>
      </trkpt>
      <trkpt lat="45.28659" lon="6.25635">
        <ele>1573.3515625</ele>
      </trkpt>
      <trkpt lat="45.2867" lon="6.25635">
        <ele>1569.87109375</ele>
      </trkpt>
      <trkpt lat="45.28695" lon="6.25652">
        <ele>1564.2265625</ele>
      </trkpt>
      <trkpt lat="45.28704" lon="6.25659">
        <ele>1561.69921875</ele>
      </trkpt>
      <trkpt lat="45.2871" lon="6.25665">
        <ele>1559.6953125</ele>
      </trkpt>
      <trkpt lat="45.28717" lon="6.25676">
        <ele>1557.7109375</ele>
      </trkpt>
      <trkpt lat="45.2871" lon="6.25663">
        <ele>1559.4765625</ele>
      </trkpt>
      <trkpt lat="45.2871" lon="6.25654">
        <ele>1558.60546875</ele>
      </trkpt>
      <trkpt lat="45.2873" lon="6.25637">
        <ele>1550.4375</ele>
      </trkpt>
      <trkpt lat="45.28734" lon="6.25624">
        <ele>1548.83984375</ele>
      </trkpt>
      <trkpt lat="45.28728" lon="6.25603">
        <ele>1545.7421875</ele>
      </trkpt>
      <trkpt lat="45.28721" lon="6.2559">
        <ele>1543.0703125</ele>
      </trkpt>
      <trkpt lat="45.28704" lon="6.25573">
        <ele>1539.6953125</ele>
      </trkpt>
      <trkpt lat="45.287" lon="6.25571">
        <ele>1539.3828125</ele>
      </trkpt>
      <trkpt lat="45.28693" lon="6.25564">
        <ele>1537.50390625</ele>
      </trkpt>
      <trkpt lat="45.28691" lon="6.25558">
        <ele>1535.0625</ele>
      </trkpt>
      <trkpt lat="45.28693" lon="6.25549">
        <ele>1531.453125</ele>
      </trkpt>
      <trkpt lat="45.28704" lon="6.25547">
        <ele>1530.203125</ele>
      </trkpt>
      <trkpt lat="45.28719" lon="6.25545">
        <ele>1528.96875</ele>
      </trkpt>
      <trkpt lat="45.28747" lon="6.25551">
        <ele>1526.9609375</ele>
      </trkpt>
      <trkpt lat="45.28764" lon="6.25558">
        <ele>1519.96484375</ele>
      </trkpt>
      <trkpt lat="45.28779" lon="6.25568">
        <ele>1514.421875</ele>
      </trkpt>
      <trkpt lat="45.2879" lon="6.25579">
        <ele>1510.58203125</ele>
      </trkpt>
      <trkpt lat="45.28798" lon="6.2559">
        <ele>1507.51171875</ele>
      </trkpt>
      <trkpt lat="45.28805" lon="6.25603">
        <ele>1505.62109375</ele>
      </trkpt>
      <trkpt lat="45.28809" lon="6.25616">
        <ele>1504.71875</ele>
      </trkpt>
      <trkpt lat="45.28813" lon="6.25637">
        <ele>1497.30078125</ele>
      </trkpt>
      <trkpt lat="45.28813" lon="6.25648">
        <ele>1494.24609375</ele>
      </trkpt>
      <trkpt lat="45.28816" lon="6.25652">
        <ele>1491.4453125</ele>
      </trkpt>
      <trkpt lat="45.2882" lon="6.25637">
        <ele>1492.91796875</ele>
      </trkpt>
      <trkpt lat="45.28822" lon="6.25618">
        <ele>1497.125</ele>
      </trkpt>
      <trkpt lat="45.28822" lon="6.25596">
        <ele>1494.98046875</ele>
      </trkpt>
      <trkpt lat="45.2882" lon="6.25588">
        <ele>1495.3125</ele>
      </trkpt>
      <trkpt lat="45.28824" lon="6.25586">
        <ele>1492.69140625</ele>
      </trkpt>
      <trkpt lat="45.28831" lon="6.25596">
        <ele>1487.9609375</ele>
      </trkpt>
      <trkpt lat="45.28831" lon="6.25603">
        <ele>1488.41015625</ele>
      </trkpt>
      <trkpt lat="45.28835" lon="6.25618">
        <ele>1485.24609375</ele>
      </trkpt>
      <trkpt lat="45.28837" lon="6.25628">
        <ele>1480.89453125</ele>
      </trkpt>
      <trkpt lat="45.28841" lon="6.25624">
        <ele>1477.84375</ele>
      </trkpt>
      <trkpt lat="45.28846" lon="6.25598">
        <ele>1474.55859375</ele>
      </trkpt>
      <trkpt lat="45.28846" lon="6.25564">
        <ele>1474.25390625</ele>
      </trkpt>
      <trkpt lat="45.28839" lon="6.25556">
        <ele>1478.87109375</ele>
      </trkpt>
      <trkpt lat="45.28831" lon="6.2553">
        <ele>1482.00390625</ele>
      </trkpt>
      <trkpt lat="45.28827" lon="6.25515">
        <ele>1479.65234375</ele>
      </trkpt>
      <trkpt lat="45.28831" lon="6.2553">
        <ele>1482.00390625</ele>
      </trkpt>
      <trkpt lat="45.28822" lon="6.25491">
        <ele>1474.7109375</ele>
      </trkpt>
      <trkpt lat="45.28831" lon="6.25489">
        <ele>1469.73828125</ele>
      </trkpt>
      <trkpt lat="45.2885" lon="6.25506">
        <ele>1463.36328125</ele>
      </trkpt>
      <trkpt lat="45.28856" lon="6.25515">
        <ele>1461.71484375</ele>
      </trkpt>
      <trkpt lat="45.28861" lon="6.25528">
        <ele>1462.29296875</ele>
      </trkpt>
      <trkpt lat="45.28867" lon="6.25536">
        <ele>1460.03515625</ele>
      </trkpt>
      <trkpt lat="45.28873" lon="6.25551">
        <ele>1454.28515625</ele>
      </trkpt>
      <trkpt lat="45.28878" lon="6.2556">
        <ele>1450.19140625</ele>
      </trkpt>
      <trkpt lat="45.28893" lon="6.25586">
        <ele>1434.3046875</ele>
      </trkpt>
      <trkpt lat="45.28897" lon="6.25598">
        <ele>1428.08984375</ele>
      </trkpt>
      <trkpt lat="45.28899" lon="6.25609">
        <ele>1423.92578125</ele>
      </trkpt>
      <trkpt lat="45.28903" lon="6.25601">
        <ele>1421.80078125</ele>
      </trkpt>
      <trkpt lat="45.28903" lon="6.25592">
        <ele>1423.73046875</ele>
      </trkpt>
      <trkpt lat="45.28895" lon="6.25558">
        <ele>1437.7890625</ele>
      </trkpt>
      <trkpt lat="45.28893" lon="6.25543">
        <ele>1442.09765625</ele>
      </trkpt>
      <trkpt lat="45.28895" lon="6.25528">
        <ele>1440.5</ele>
      </trkpt>
      <trkpt lat="45.28901" lon="6.25498">
        <ele>1431.05859375</ele>
      </trkpt>
      <trkpt lat="45.28906" lon="6.25498">
        <ele>1428.55859375</ele>
      </trkpt>
      <trkpt lat="45.2891" lon="6.255">
        <ele>1425.8359375</ele>
      </trkpt>
      <trkpt lat="45.28919" lon="6.25525">
        <ele>1421.8046875</ele>
      </trkpt>
      <trkpt lat="45.28923" lon="6.25571">
        <ele>1412.9453125</ele>
      </trkpt>
      <trkpt lat="45.28923" lon="6.25594">
        <ele>1409.078125</ele>
      </trkpt>
      <trkpt lat="45.28925" lon="6.25577">
        <ele>1410.21484375</ele>
      </trkpt>
      <trkpt lat="45.28927" lon="6.25564">
        <ele>1410.375</ele>
      </trkpt>
      <trkpt lat="45.28929" lon="6.25543">
        <ele>1411.40234375</ele>
      </trkpt>
      <trkpt lat="45.28938" lon="6.25515">
        <ele>1403.69921875</ele>
      </trkpt>
      <trkpt lat="45.2894" lon="6.25489">
        <ele>1401.859375</ele>
      </trkpt>
      <trkpt lat="45.28934" lon="6.2547">
        <ele>1406.03515625</ele>
      </trkpt>
      <trkpt lat="45.28929" lon="6.25465">
        <ele>1408.55859375</ele>
      </trkpt>
      <trkpt lat="45.28936" lon="6.25461">
        <ele>1404.4765625</ele>
      </trkpt>
      <trkpt lat="45.2894" lon="6.25461">
        <ele>1401.91015625</ele>
      </trkpt>
      <trkpt lat="45.28946" lon="6.25468">
        <ele>1397.83203125</ele>
      </trkpt>
      <trkpt lat="45.28951" lon="6.25476">
        <ele>1394.62890625</ele>
      </trkpt>
      <trkpt lat="45.28951" lon="6.25495">
        <ele>1393.51953125</ele>
      </trkpt>
      <trkpt lat="45.28957" lon="6.25493">
        <ele>1388.71484375</ele>
      </trkpt>
      <trkpt lat="45.28964" lon="6.25485">
        <ele>1384.85546875</ele>
      </trkpt>
      <trkpt lat="45.28966" lon="6.25474">
        <ele>1384.76171875</ele>
      </trkpt>
      <trkpt lat="45.28968" lon="6.25457">
        <ele>1385.8515625</ele>
      </trkpt>
      <trkpt lat="45.2897" lon="6.25446">
        <ele>1382.359375</ele>
      </trkpt>
      <trkpt lat="45.28979" lon="6.25442">
        <ele>1375.92578125</ele>
      </trkpt>
      <trkpt lat="45.28983" lon="6.25448">
        <ele>1376.5</ele>
      </trkpt>
      <trkpt lat="45.28989" lon="6.25476">
        <ele>1368.51171875</ele>
      </trkpt>
      <trkpt lat="45.28989" lon="6.25487">
        <ele>1365.7421875</ele>
      </trkpt>
      <trkpt lat="45.28987" lon="6.25502">
        <ele>1363.60546875</ele>
      </trkpt>
      <trkpt lat="45.28983" lon="6.25508">
        <ele>1365.63671875</ele>
      </trkpt>
      <trkpt lat="45.28981" lon="6.25515">
        <ele>1366.07421875</ele>
      </trkpt>
      <trkpt lat="45.28983" lon="6.25519">
        <ele>1363.23046875</ele>
      </trkpt>
      <trkpt lat="45.28994" lon="6.25513">
        <ele>1355.328125</ele>
      </trkpt>
      <trkpt lat="45.29019" lon="6.2547">
        <ele>1349.21484375</ele>
      </trkpt>
      <trkpt lat="45.29026" lon="6.25455">
        <ele>1350.97265625</ele>
      </trkpt>
      <trkpt lat="45.2903" lon="6.25437">
        <ele>1347.23828125</ele>
      </trkpt>
      <trkpt lat="45.2903" lon="6.25425">
        <ele>1345.44140625</ele>
      </trkpt>
      <trkpt lat="45.29032" lon="6.25414">
        <ele>1343.140625</ele>
      </trkpt>
      <trkpt lat="45.2903" lon="6.25407">
        <ele>1343.046875</ele>
      </trkpt>
      <trkpt lat="45.29037" lon="6.25412">
        <ele>1341.31640625</ele>
      </trkpt>
      <trkpt lat="45.29047" lon="6.25437">
        <ele>1338.1640625</ele>
      </trkpt>
      <trkpt lat="45.29049" lon="6.25444">
        <ele>1337.12109375</ele>
      </trkpt>
      <trkpt lat="45.29045" lon="6.2545">
        <ele>1339.83984375</ele>
      </trkpt>
      <trkpt lat="45.29043" lon="6.25457">
        <ele>1339.01953125</ele>
      </trkpt>
      <trkpt lat="45.29064" lon="6.25455">
        <ele>1326.453125</ele>
      </trkpt>
      <trkpt lat="45.29069" lon="6.25407">
        <ele>1330.15625</ele>
      </trkpt>
      <trkpt lat="45.29069" lon="6.25375">
        <ele>1333.7265625</ele>
      </trkpt>
      <trkpt lat="45.29075" lon="6.25382">
        <ele>1331.41015625</ele>
      </trkpt>
      <trkpt lat="45.29084" lon="6.25392">
        <ele>1324.73828125</ele>
      </trkpt>
      <trkpt lat="45.29094" lon="6.25412">
        <ele>1314.50390625</ele>
      </trkpt>
      <trkpt lat="45.29094" lon="6.25422">
        <ele>1312.3515625</ele>
      </trkpt>
      <trkpt lat="45.29103" lon="6.2542">
        <ele>1307.0390625</ele>
      </trkpt>
      <trkpt lat="45.29112" lon="6.25403">
        <ele>1305.546875</ele>
      </trkpt>
      <trkpt lat="45.29116" lon="6.2539">
        <ele>1306.21875</ele>
      </trkpt>
      <trkpt lat="45.29116" lon="6.25371">
        <ele>1311.23046875</ele>
      </trkpt>
      <trkpt lat="45.29114" lon="6.25358">
        <ele>1309.0546875</ele>
      </trkpt>
      <trkpt lat="45.29112" lon="6.2535">
        <ele>1306.90234375</ele>
      </trkpt>
      <trkpt lat="45.29112" lon="6.25345">
        <ele>1305.33203125</ele>
      </trkpt>
      <trkpt lat="45.29116" lon="6.25343">
        <ele>1302.96875</ele>
      </trkpt>
      <trkpt lat="45.29122" lon="6.25345">
        <ele>1301.2421875</ele>
      </trkpt>
      <trkpt lat="45.29131" lon="6.25352">
        <ele>1299.55859375</ele>
      </trkpt>
      <trkpt lat="45.29142" lon="6.25365">
        <ele>1297.3515625</ele>
      </trkpt>
      <trkpt lat="45.29144" lon="6.25388">
        <ele>1290.57421875</ele>
      </trkpt>
      <trkpt lat="45.29142" lon="6.25401">
        <ele>1287.5703125</ele>
      </trkpt>
      <trkpt lat="45.29163" lon="6.25373">
        <ele>1284.94140625</ele>
      </trkpt>
      <trkpt lat="45.29172" lon="6.25341">
        <ele>1279.6328125</ele>
      </trkpt>
      <trkpt lat="45.29172" lon="6.25326">
        <ele>1278.6875</ele>
      </trkpt>
      <trkpt lat="45.29167" lon="6.25311">
        <ele>1279.90625</ele>
      </trkpt>
      <trkpt lat="45.29165" lon="6.25302">
        <ele>1280.37109375</ele>
      </trkpt>
      <trkpt lat="45.29163" lon="6.25289">
        <ele>1280.45703125</ele>
      </trkpt>
      <trkpt lat="45.29172" lon="6.25287">
        <ele>1276.25390625</ele>
      </trkpt>
      <trkpt lat="45.29178" lon="6.25292">
        <ele>1273.45703125</ele>
      </trkpt>
      <trkpt lat="45.29193" lon="6.25309">
        <ele>1266.84375</ele>
      </trkpt>
      <trkpt lat="45.29197" lon="6.25315">
        <ele>1264.859375</ele>
      </trkpt>
      <trkpt lat="45.29208" lon="6.25339">
        <ele>1259.625</ele>
      </trkpt>
      <trkpt lat="45.29215" lon="6.25345">
        <ele>1256.125</ele>
      </trkpt>
      <trkpt lat="45.2921" lon="6.25304">
        <ele>1258.203125</ele>
      </trkpt>
      <trkpt lat="45.29208" lon="6.25287">
        <ele>1259.08984375</ele>
      </trkpt>
      <trkpt lat="45.29193" lon="6.25253">
        <ele>1242.58203125</ele>
      </trkpt>
      <trkpt lat="45.29185" lon="6.25249">
        <ele>1242.234375</ele>
      </trkpt>
      <trkpt lat="45.29195" lon="6.25244">
        <ele>1235.765625</ele>
      </trkpt>
      <trkpt lat="45.29204" lon="6.25249">
        <ele>1236.07421875</ele>
      </trkpt>
      <trkpt lat="45.29212" lon="6.25255">
        <ele>1237.46484375</ele>
      </trkpt>
      <trkpt lat="45.29219" lon="6.25268">
        <ele>1243.16015625</ele>
      </trkpt>
      <trkpt lat="45.29243" lon="6.25294">
        <ele>1242.03515625</ele>
      </trkpt>
      <trkpt lat="45.29249" lon="6.25302">
        <ele>1236.578125</ele>
      </trkpt>
      <trkpt lat="45.29255" lon="6.25315">
        <ele>1230.69140625</ele>
      </trkpt>
      <trkpt lat="45.29258" lon="6.25311">
        <ele>1229.21484375</ele>
      </trkpt>
      <trkpt lat="45.29255" lon="6.25302">
        <ele>1231.4609375</ele>
      </trkpt>
      <trkpt lat="45.29251" lon="6.25294">
        <ele>1235.328125</ele>
      </trkpt>
      <trkpt lat="45.29245" lon="6.25283">
        <ele>1239.28515625</ele>
      </trkpt>
      <trkpt lat="45.2924" lon="6.25274">
        <ele>1238.046875</ele>
      </trkpt>
      <trkpt lat="45.29238" lon="6.25266">
        <ele>1234.34765625</ele>
      </trkpt>
      <trkpt lat="45.29247" lon="6.25266">
        <ele>1228.5859375</ele>
      </trkpt>
      <trkpt lat="45.29255" lon="6.2527">
        <ele>1224.2734375</ele>
      </trkpt>
      <trkpt lat="45.29262" lon="6.25274">
        <ele>1221.59375</ele>
      </trkpt>
      <trkpt lat="45.29275" lon="6.25296">
        <ele>1216.6953125</ele>
      </trkpt>
      <trkpt lat="45.29277" lon="6.25304">
        <ele>1214.20703125</ele>
      </trkpt>
      <trkpt lat="45.29279" lon="6.25309">
        <ele>1212.07421875</ele>
      </trkpt>
      <trkpt lat="45.29281" lon="6.25302">
        <ele>1210.99609375</ele>
      </trkpt>
      <trkpt lat="45.29277" lon="6.25283">
        <ele>1214.56640625</ele>
      </trkpt>
      <trkpt lat="45.29264" lon="6.25244">
        <ele>1204.1796875</ele>
      </trkpt>
      <trkpt lat="45.29255" lon="6.25232">
        <ele>1203.94921875</ele>
      </trkpt>
      <trkpt lat="45.29245" lon="6.25225">
        <ele>1208.7109375</ele>
      </trkpt>
      <trkpt lat="45.29236" lon="6.25214">
        <ele>1207.078125</ele>
      </trkpt>
      <trkpt lat="45.2923" lon="6.25193">
        <ele>1196.109375</ele>
      </trkpt>
      <trkpt lat="45.29225" lon="6.25186">
        <ele>1193.28515625</ele>
      </trkpt>
      <trkpt lat="45.29225" lon="6.25182">
        <ele>1190.9453125</ele>
      </trkpt>
      <trkpt lat="45.2924" lon="6.25191">
        <ele>1193.13671875</ele>
      </trkpt>
      <trkpt lat="45.29245" lon="6.25195">
        <ele>1192.74609375</ele>
      </trkpt>
      <trkpt lat="45.29253" lon="6.25197">
        <ele>1187.890625</ele>
      </trkpt>
      <trkpt lat="45.29279" lon="6.25214">
        <ele>1177.01953125</ele>
      </trkpt>
      <trkpt lat="45.2929" lon="6.25225">
        <ele>1174.48046875</ele>
      </trkpt>
      <trkpt lat="45.29307" lon="6.25247">
        <ele>1172.56640625</ele>
      </trkpt>
      <trkpt lat="45.29313" lon="6.25253">
        <ele>1170.9921875</ele>
      </trkpt>
      <trkpt lat="45.29322" lon="6.25266">
        <ele>1171.0859375</ele>
      </trkpt>
      <trkpt lat="45.29328" lon="6.25279">
        <ele>1173.80078125</ele>
      </trkpt>
      <trkpt lat="45.29328" lon="6.25289">
        <ele>1176.78125</ele>
      </trkpt>
      <trkpt lat="45.29335" lon="6.25274">
        <ele>1168.18359375</ele>
      </trkpt>
      <trkpt lat="45.2933" lon="6.25264">
        <ele>1165.19921875</ele>
      </trkpt>
      <trkpt lat="45.29335" lon="6.25262">
        <ele>1162.01171875</ele>
      </trkpt>
      <trkpt lat="45.29339" lon="6.25266">
        <ele>1161.87890625</ele>
      </trkpt>
      <trkpt lat="45.29343" lon="6.25279">
        <ele>1165.4921875</ele>
      </trkpt>
      <trkpt lat="45.29358" lon="6.25294">
        <ele>1160.51953125</ele>
      </trkpt>
      <trkpt lat="45.29363" lon="6.25307">
        <ele>1159.5234375</ele>
      </trkpt>
      <trkpt lat="45.29365" lon="6.25283">
        <ele>1155.25</ele>
      </trkpt>
      <trkpt lat="45.29361" lon="6.2527">
        <ele>1152.61328125</ele>
      </trkpt>
      <trkpt lat="45.29358" lon="6.25262">
        <ele>1150.296875</ele>
      </trkpt>
      <trkpt lat="45.29363" lon="6.25262">
        <ele>1148.16796875</ele>
      </trkpt>
      <trkpt lat="45.29369" lon="6.25264">
        <ele>1145.7578125</ele>
      </trkpt>
      <trkpt lat="45.29373" lon="6.25268">
        <ele>1145.10546875</ele>
      </trkpt>
      <trkpt lat="45.29384" lon="6.25287">
        <ele>1145.52734375</ele>
      </trkpt>
      <trkpt lat="45.29388" lon="6.25302">
        <ele>1147.171875</ele>
      </trkpt>
      <trkpt lat="45.29388" lon="6.25311">
        <ele>1149.49609375</ele>
      </trkpt>
      <trkpt lat="45.29393" lon="6.25319">
        <ele>1150.328125</ele>
      </trkpt>
      <trkpt lat="45.29397" lon="6.25324">
        <ele>1150.25</ele>
      </trkpt>
      <trkpt lat="45.29406" lon="6.25324">
        <ele>1147.51953125</ele>
      </trkpt>
      <trkpt lat="45.29414" lon="6.25296">
        <ele>1134.76171875</ele>
      </trkpt>
      <trkpt lat="45.29416" lon="6.25285">
        <ele>1129.95703125</ele>
      </trkpt>
      <trkpt lat="45.29416" lon="6.25277">
        <ele>1127.96875</ele>
      </trkpt>
      <trkpt lat="45.29408" lon="6.25259">
        <ele>1125.54296875</ele>
      </trkpt>
      <trkpt lat="45.29406" lon="6.25253">
        <ele>1124.76953125</ele>
      </trkpt>
      <trkpt lat="45.29414" lon="6.25247">
        <ele>1121.36328125</ele>
      </trkpt>
      <trkpt lat="45.29433" lon="6.25236">
        <ele>1115.74609375</ele>
      </trkpt>
      <trkpt lat="45.29438" lon="6.25227">
        <ele>1113.22265625</ele>
      </trkpt>
      <trkpt lat="45.29442" lon="6.25223">
        <ele>1111.6640625</ele>
      </trkpt>
      <trkpt lat="45.29449" lon="6.25221">
        <ele>1110.26171875</ele>
      </trkpt>
      <trkpt lat="45.29453" lon="6.25225">
        <ele>1110.484375</ele>
      </trkpt>
      <trkpt lat="45.29455" lon="6.25232">
        <ele>1111.4375</ele>
      </trkpt>
      <trkpt lat="45.29457" lon="6.25236">
        <ele>1111.9453125</ele>
      </trkpt>
      <trkpt lat="45.29461" lon="6.25236">
        <ele>1111.25390625</ele>
      </trkpt>
      <trkpt lat="45.29468" lon="6.25225">
        <ele>1108.20703125</ele>
      </trkpt>
      <trkpt lat="45.29474" lon="6.25216">
        <ele>1105.66796875</ele>
      </trkpt>
      <trkpt lat="45.29479" lon="6.25214">
        <ele>1104.66796875</ele>
      </trkpt>
      <trkpt lat="45.29487" lon="6.25214">
        <ele>1103.4453125</ele>
      </trkpt>
      <trkpt lat="45.29489" lon="6.25206">
        <ele>1101.69140625</ele>
      </trkpt>
      <trkpt lat="45.29494" lon="6.25199">
        <ele>1099.3671875</ele>
      </trkpt>
      <trkpt lat="45.29498" lon="6.25197">
        <ele>1097.2578125</ele>
      </trkpt>
      <trkpt lat="45.29489" lon="6.25184">
        <ele>1100.984375</ele>
      </trkpt>
      <trkpt lat="45.29485" lon="6.25182">
        <ele>1101.9375</ele>
      </trkpt>
      <trkpt lat="45.29479" lon="6.2518">
        <ele>1103.4765625</ele>
      </trkpt>
      <trkpt lat="45.2947" lon="6.25178">
        <ele>1105.671875</ele>
      </trkpt>
      <trkpt lat="45.29457" lon="6.25184">
        <ele>1107.92578125</ele>
      </trkpt>
      <trkpt lat="45.29453" lon="6.25184">
        <ele>1108.8515625</ele>
      </trkpt>
      <trkpt lat="45.29455" lon="6.25171">
        <ele>1110.328125</ele>
      </trkpt>
      <trkpt lat="45.29464" lon="6.25163">
        <ele>1108.921875</ele>
      </trkpt>
      <trkpt lat="45.29489" lon="6.25156">
        <ele>1100.76953125</ele>
      </trkpt>
      <trkpt lat="45.29515" lon="6.25156">
        <ele>1086.03125</ele>
      </trkpt>
      <trkpt lat="45.29521" lon="6.25154">
        <ele>1082.1015625</ele>
      </trkpt>
      <trkpt lat="45.29541" lon="6.25131">
        <ele>1067.5703125</ele>
      </trkpt>
      <trkpt lat="45.29543" lon="6.2512">
        <ele>1064.671875</ele>
      </trkpt>
      <trkpt lat="45.29554" lon="6.25098">
        <ele>1067.5625</ele>
      </trkpt>
      <trkpt lat="45.29582" lon="6.25062">
        <ele>1067.40234375</ele>
      </trkpt>
      <trkpt lat="45.29586" lon="6.25043">
        <ele>1073.734375</ele>
      </trkpt>
      <trkpt lat="45.29586" lon="6.25026">
        <ele>1078.33984375</ele>
      </trkpt>
      <trkpt lat="45.29588" lon="6.25006">
        <ele>1080.12109375</ele>
      </trkpt>
      <trkpt lat="45.2959" lon="6.24993">
        <ele>1080.953125</ele>
      </trkpt>
      <trkpt lat="45.29603" lon="6.2498">
        <ele>1076.03515625</ele>
      </trkpt>
      <trkpt lat="45.29605" lon="6.24968">
        <ele>1077.08203125</ele>
      </trkpt>
      <trkpt lat="45.29607" lon="6.24953">
        <ele>1078.55078125</ele>
      </trkpt>
      <trkpt lat="45.29605" lon="6.2494">
        <ele>1080.984375</ele>
      </trkpt>
      <trkpt lat="45.29607" lon="6.2492">
        <ele>1081.77734375</ele>
      </trkpt>
      <trkpt lat="45.29612" lon="6.24892">
        <ele>1082.0234375</ele>
      </trkpt>
      <trkpt lat="45.29607" lon="6.24877">
        <ele>1086.078125</ele>
      </trkpt>
      <trkpt lat="45.29607" lon="6.24865">
        <ele>1086.4296875</ele>
      </trkpt>
      <trkpt lat="45.29601" lon="6.24841">
        <ele>1087.6015625</ele>
      </trkpt>
      <trkpt lat="45.29603" lon="6.24835">
        <ele>1085.7109375</ele>
      </trkpt>
      <trkpt lat="45.29607" lon="6.2483">
        <ele>1083.01171875</ele>
      </trkpt>
      <trkpt lat="45.29605" lon="6.24826">
        <ele>1083.671875</ele>
      </trkpt>
      <trkpt lat="45.2959" lon="6.24811">
        <ele>1089.06640625</ele>
      </trkpt>
      <trkpt lat="45.29586" lon="6.24809">
        <ele>1090.71875</ele>
      </trkpt>
      <trkpt lat="45.29584" lon="6.248">
        <ele>1090.296875</ele>
      </trkpt>
      <trkpt lat="45.29577" lon="6.24789">
        <ele>1091.14453125</ele>
      </trkpt>
      <trkpt lat="45.29573" lon="6.24783">
        <ele>1091.48046875</ele>
      </trkpt>
      <trkpt lat="45.29569" lon="6.24772">
        <ele>1090.83984375</ele>
      </trkpt>
      <trkpt lat="45.2956" lon="6.24766">
        <ele>1093.65625</ele>
      </trkpt>
      <trkpt lat="45.29545" lon="6.24751">
        <ele>1097.27734375</ele>
      </trkpt>
      <trkpt lat="45.29541" lon="6.24742">
        <ele>1096.96875</ele>
      </trkpt>
      <trkpt lat="45.29532" lon="6.24736">
        <ele>1099.46875</ele>
      </trkpt>
      <trkpt lat="45.29526" lon="6.24721">
        <ele>1098.125</ele>
      </trkpt>
      <trkpt lat="45.29505" lon="6.24682">
        <ele>1098.84765625</ele>
      </trkpt>
      <trkpt lat="45.29496" lon="6.24665">
        <ele>1099.80859375</ele>
      </trkpt>
      <trkpt lat="45.29489" lon="6.24648">
        <ele>1099.37109375</ele>
      </trkpt>
      <trkpt lat="45.29483" lon="6.24629">
        <ele>1099.0625</ele>
      </trkpt>
      <trkpt lat="45.2947" lon="6.24611">
        <ele>1102.59375</ele>
      </trkpt>
      <trkpt lat="45.29449" lon="6.24556">
        <ele>1102.234375</ele>
      </trkpt>
      <trkpt lat="45.29444" lon="6.24521">
        <ele>1097.0234375</ele>
      </trkpt>
      <trkpt lat="45.2944" lon="6.24515">
        <ele>1097.58203125</ele>
      </trkpt>
      <trkpt lat="45.29431" lon="6.24506">
        <ele>1099.38671875</ele>
      </trkpt>
      <trkpt lat="45.29425" lon="6.24498">
        <ele>1100.03515625</ele>
      </trkpt>
      <trkpt lat="45.29408" lon="6.24468">
        <ele>1098.7890625</ele>
      </trkpt>
      <trkpt lat="45.29403" lon="6.24455">
        <ele>1097.98828125</ele>
      </trkpt>
      <trkpt lat="45.29401" lon="6.24446">
        <ele>1097.5390625</ele>
      </trkpt>
      <trkpt lat="45.29395" lon="6.2444">
        <ele>1100.5234375</ele>
      </trkpt>
      <trkpt lat="45.29384" lon="6.24435">
        <ele>1106.73046875</ele>
      </trkpt>
      <trkpt lat="45.29378" lon="6.24427">
        <ele>1108.75390625</ele>
      </trkpt>
      <trkpt lat="45.29367" lon="6.24401">
        <ele>1108.26953125</ele>
      </trkpt>
      <trkpt lat="45.29361" lon="6.2439">
        <ele>1108.84375</ele>
      </trkpt>
      <trkpt lat="45.29352" lon="6.2435">
        <ele>1103.546875</ele>
      </trkpt>
      <trkpt lat="45.29324" lon="6.24268">
        <ele>1101.859375</ele>
      </trkpt>
      <trkpt lat="45.29318" lon="6.24242">
        <ele>1102.68359375</ele>
      </trkpt>
      <trkpt lat="45.29285" lon="6.24141">
        <ele>1104.08984375</ele>
      </trkpt>
      <trkpt lat="45.29279" lon="6.24105">
        <ele>1103.18359375</ele>
      </trkpt>
      <trkpt lat="45.29266" lon="6.24008">
        <ele>1103.109375</ele>
      </trkpt>
      <trkpt lat="45.29255" lon="6.23983">
        <ele>1105.2734375</ele>
      </trkpt>
      <trkpt lat="45.29258" lon="6.23933">
        <ele>1103.921875</ele>
      </trkpt>
      <trkpt lat="45.29268" lon="6.2391">
        <ele>1100.63671875</ele>
      </trkpt>
      <trkpt lat="45.2927" lon="6.2386">
        <ele>1100.23828125</ele>
      </trkpt>
      <trkpt lat="45.29275" lon="6.23809">
        <ele>1099.28125</ele>
      </trkpt>
      <trkpt lat="45.29275" lon="6.23742">
        <ele>1098.39453125</ele>
      </trkpt>
      <trkpt lat="45.29258" lon="6.23682">
        <ele>1101.81640625</ele>
      </trkpt>
      <trkpt lat="45.29262" lon="6.23667">
        <ele>1101.83203125</ele>
      </trkpt>
      <trkpt lat="45.2927" lon="6.23663">
        <ele>1100.515625</ele>
      </trkpt>
      <trkpt lat="45.29281" lon="6.23661">
        <ele>1098.70703125</ele>
      </trkpt>
      <trkpt lat="45.29294" lon="6.23657">
        <ele>1096.6640625</ele>
      </trkpt>
      <trkpt lat="45.29303" lon="6.23646">
        <ele>1095.83984375</ele>
      </trkpt>
      <trkpt lat="45.29309" lon="6.23631">
        <ele>1095.73046875</ele>
      </trkpt>
      <trkpt lat="45.29311" lon="6.23618">
        <ele>1096.1171875</ele>
      </trkpt>
      <trkpt lat="45.29315" lon="6.23569">
        <ele>1095.6796875</ele>
      </trkpt>
      <trkpt lat="45.29328" lon="6.23665">
        <ele>1089.21875</ele>
      </trkpt>
      <trkpt lat="45.29333" lon="6.23674">
        <ele>1087.12890625</ele>
      </trkpt>
      <trkpt lat="45.29339" lon="6.23682">
        <ele>1084.2421875</ele>
      </trkpt>
      <trkpt lat="45.29346" lon="6.23687">
        <ele>1081.6484375</ele>
      </trkpt>
      <trkpt lat="45.29354" lon="6.23687">
        <ele>1078.68359375</ele>
      </trkpt>
      <trkpt lat="45.29363" lon="6.2368">
        <ele>1076.3984375</ele>
      </trkpt>
      <trkpt lat="45.29371" lon="6.23667">
        <ele>1074.93359375</ele>
      </trkpt>
      <trkpt lat="45.2938" lon="6.2365">
        <ele>1074.18359375</ele>
      </trkpt>
      <trkpt lat="45.29386" lon="6.23626">
        <ele>1075.140625</ele>
      </trkpt>
      <trkpt lat="45.2941" lon="6.23534">
        <ele>1076.77734375</ele>
      </trkpt>
      <trkpt lat="45.2941" lon="6.23521">
        <ele>1076.31640625</ele>
      </trkpt>
      <trkpt lat="45.29408" lon="6.235">
        <ele>1076.3671875</ele>
      </trkpt>
      <trkpt lat="45.29399" lon="6.23442">
        <ele>1077.13671875</ele>
      </trkpt>
      <trkpt lat="45.29399" lon="6.23378">
        <ele>1077.0625</ele>
      </trkpt>
      <trkpt lat="45.29397" lon="6.23354">
        <ele>1076.9921875</ele>
      </trkpt>
      <trkpt lat="45.29395" lon="6.23335">
        <ele>1076.78515625</ele>
      </trkpt>
      <trkpt lat="45.29388" lon="6.23315">
        <ele>1077.62109375</ele>
      </trkpt>
      <trkpt lat="45.2938" lon="6.23294">
        <ele>1078.8125</ele>
      </trkpt>
      <trkpt lat="45.29373" lon="6.23275">
        <ele>1078.54296875</ele>
      </trkpt>
      <trkpt lat="45.29369" lon="6.2326">
        <ele>1077.85546875</ele>
      </trkpt>
      <trkpt lat="45.29365" lon="6.23236">
        <ele>1076.32421875</ele>
      </trkpt>
      <trkpt lat="45.29365" lon="6.23219">
        <ele>1074.375</ele>
      </trkpt>
      <trkpt lat="45.29367" lon="6.23195">
        <ele>1072.12109375</ele>
      </trkpt>
      <trkpt lat="45.29369" lon="6.23176">
        <ele>1071.8671875</ele>
      </trkpt>
      <trkpt lat="45.29373" lon="6.23154">
        <ele>1071.16015625</ele>
      </trkpt>
      <trkpt lat="45.2938" lon="6.23133">
        <ele>1070.09375</ele>
      </trkpt>
      <trkpt lat="45.29382" lon="6.2312">
        <ele>1069.9609375</ele>
      </trkpt>
      <trkpt lat="45.2938" lon="6.23103">
        <ele>1068.74609375</ele>
      </trkpt>
      <trkpt lat="45.29373" lon="6.23075">
        <ele>1067.81640625</ele>
      </trkpt>
      <trkpt lat="45.29373" lon="6.23062">
        <ele>1066.61328125</ele>
      </trkpt>
      <trkpt lat="45.29367" lon="6.23062">
        <ele>1068.59375</ele>
      </trkpt>
      <trkpt lat="45.29356" lon="6.23047">
        <ele>1070.78515625</ele>
      </trkpt>
      <trkpt lat="45.2935" lon="6.23028">
        <ele>1071.18359375</ele>
      </trkpt>
      <trkpt lat="45.29346" lon="6.23024">
        <ele>1072.046875</ele>
      </trkpt>
      <trkpt lat="45.29339" lon="6.23021">
        <ele>1073.78515625</ele>
      </trkpt>
      <trkpt lat="45.29322" lon="6.23026">
        <ele>1079.23828125</ele>
      </trkpt>
      <trkpt lat="45.29303" lon="6.23034">
        <ele>1080.61328125</ele>
      </trkpt>
      <trkpt lat="45.2929" lon="6.23045">
        <ele>1081.5546875</ele>
      </trkpt>
      <trkpt lat="45.29262" lon="6.23077">
        <ele>1084.9453125</ele>
      </trkpt>
      <trkpt lat="45.29259" lon="6.23082">
        <ele>1085.5859375</ele>
      </trkpt>
      <trkpt lat="45.29259" lon="6.23082">
        <ele>1085.5859375</ele>
      </trkpt>
      <trkpt lat="45.29191" lon="6.23093">
        <ele>1100.328735</ele>
        <time>2019-07-24T09:20:15Z</time>
      </trkpt>
      <trkpt lat="45.29193" lon="6.23087">
        <ele>1099.294922</ele>
        <time>2019-07-24T09:20:24Z</time>
      </trkpt>
      <trkpt lat="45.29191" lon="6.23097">
        <ele>1100.860352</ele>
        <time>2019-07-24T09:20:32Z</time>
      </trkpt>
      <trkpt lat="45.29195" lon="6.23125">
        <ele>1102.535034</ele>
        <time>2019-07-24T09:20:36Z</time>
      </trkpt>
      <trkpt lat="45.29207" lon="6.23143">
        <ele>1102.265015</ele>
        <time>2019-07-24T09:20:39Z</time>
      </trkpt>
      <trkpt lat="45.29214" lon="6.23146">
        <ele>1101.407471</ele>
        <time>2019-07-24T09:20:41Z</time>
      </trkpt>
      <trkpt lat="45.29223" lon="6.23142">
        <ele>1099.94751</ele>
        <time>2019-07-24T09:20:46Z</time>
      </trkpt>
      <trkpt lat="45.29226" lon="6.23137">
        <ele>1099.032471</ele>
        <time>2019-07-24T09:20:50Z</time>
      </trkpt>
      <trkpt lat="45.29225" lon="6.23134">
        <ele>1098.998779</ele>
        <time>2019-07-24T09:20:59Z</time>
      </trkpt>
      <trkpt lat="45.29229" lon="6.23139">
        <ele>1098.806274</ele>
        <time>2019-07-24T09:21:59Z</time>
      </trkpt>
      <trkpt lat="45.29221" lon="6.23144">
        <ele>1100.35498</ele>
        <time>2019-07-24T09:22:03Z</time>
      </trkpt>
      <trkpt lat="45.29207" lon="6.23138">
        <ele>1101.897461</ele>
        <time>2019-07-24T09:22:07Z</time>
      </trkpt>
      <trkpt lat="45.29194" lon="6.23116">
        <ele>1102.112549</ele>
        <time>2019-07-24T09:22:17Z</time>
      </trkpt>
      <trkpt lat="45.29192" lon="6.23086">
        <ele>1099.292236</ele>
        <time>2019-07-24T09:22:33Z</time>
      </trkpt>
      <trkpt lat="45.29196" lon="6.23068">
        <ele>1096.515503</ele>
        <time>2019-07-24T09:22:43Z</time>
      </trkpt>
      <trkpt lat="45.29202" lon="6.22971">
        <ele>1089.443848</ele>
        <time>2019-07-24T09:23:11Z</time>
      </trkpt>
      <trkpt lat="45.292" lon="6.2295">
        <ele>1090.015015</ele>
        <time>2019-07-24T09:23:14Z</time>
      </trkpt>
      <trkpt lat="45.29192" lon="6.22925">
        <ele>1094.666748</ele>
        <time>2019-07-24T09:23:19Z</time>
      </trkpt>
      <trkpt lat="45.29182" lon="6.2288">
        <ele>1096.890259</ele>
        <time>2019-07-24T09:23:26Z</time>
      </trkpt>
      <trkpt lat="45.2918" lon="6.22857">
        <ele>1095.101807</ele>
        <time>2019-07-24T09:23:28Z</time>
      </trkpt>
      <trkpt lat="45.29163" lon="6.22788">
        <ele>1090.391357</ele>
        <time>2019-07-24T09:23:34Z</time>
      </trkpt>
      <trkpt lat="45.29151" lon="6.22751">
        <ele>1093.124023</ele>
        <time>2019-07-24T09:23:38Z</time>
      </trkpt>
      <trkpt lat="45.29131" lon="6.22663">
        <ele>1092.731445</ele>
        <time>2019-07-24T09:23:49Z</time>
      </trkpt>
      <trkpt lat="45.29106" lon="6.22609">
        <ele>1098.022461</ele>
        <time>2019-07-24T09:24:00Z</time>
      </trkpt>
      <trkpt lat="45.29082" lon="6.22569">
        <ele>1106.243042</ele>
        <time>2019-07-24T09:24:10Z</time>
      </trkpt>
      <trkpt lat="45.29063" lon="6.2251">
        <ele>1108.839111</ele>
        <time>2019-07-24T09:24:31Z</time>
      </trkpt>
      <trkpt lat="45.29064" lon="6.22498">
        <ele>1106.595093</ele>
        <time>2019-07-24T09:24:55Z</time>
      </trkpt>
      <trkpt lat="45.2906" lon="6.22466">
        <ele>1103.717285</ele>
        <time>2019-07-24T09:25:09Z</time>
      </trkpt>
      <trkpt lat="45.29028" lon="6.2239">
        <ele>1107.469604</ele>
        <time>2019-07-24T09:25:44Z</time>
      </trkpt>
      <trkpt lat="45.29022" lon="6.22367">
        <ele>1108.265137</ele>
        <time>2019-07-24T09:25:55Z</time>
      </trkpt>
      <trkpt lat="45.29002" lon="6.22329">
        <ele>1110.416992</ele>
        <time>2019-07-24T09:26:15Z</time>
      </trkpt>
      <trkpt lat="45.28986" lon="6.2231">
        <ele>1114.775269</ele>
        <time>2019-07-24T09:26:33Z</time>
      </trkpt>
      <trkpt lat="45.28968" lon="6.22264">
        <ele>1116.853882</ele>
        <time>2019-07-24T09:27:03Z</time>
      </trkpt>
      <trkpt lat="45.28958" lon="6.22252">
        <ele>1119.07373</ele>
        <time>2019-07-24T09:27:16Z</time>
      </trkpt>
      <trkpt lat="45.28951" lon="6.22239">
        <ele>1121.131958</ele>
        <time>2019-07-24T09:27:26Z</time>
      </trkpt>
      <trkpt lat="45.28935" lon="6.2222">
        <ele>1127.205322</ele>
        <time>2019-07-24T09:27:44Z</time>
      </trkpt>
      <trkpt lat="45.28929" lon="6.22204">
        <ele>1128.365845</ele>
        <time>2019-07-24T09:27:56Z</time>
      </trkpt>
      <trkpt lat="45.28923" lon="6.22158">
        <ele>1129.310547</ele>
        <time>2019-07-24T09:28:25Z</time>
      </trkpt>
      <trkpt lat="45.28913" lon="6.22131">
        <ele>1131.577271</ele>
        <time>2019-07-24T09:28:42Z</time>
      </trkpt>
      <trkpt lat="45.28909" lon="6.22109">
        <ele>1133.044678</ele>
        <time>2019-07-24T09:28:51Z</time>
      </trkpt>
      <trkpt lat="45.28896" lon="6.22082">
        <ele>1136.974121</ele>
        <time>2019-07-24T09:29:07Z</time>
      </trkpt>
      <trkpt lat="45.28883" lon="6.22067">
        <ele>1140.217651</ele>
        <time>2019-07-24T09:29:16Z</time>
      </trkpt>
      <trkpt lat="45.28858" lon="6.22015">
        <ele>1144.364868</ele>
        <time>2019-07-24T09:29:43Z</time>
      </trkpt>
      <trkpt lat="45.28838" lon="6.21949">
        <ele>1144.002319</ele>
        <time>2019-07-24T09:30:10Z</time>
      </trkpt>
      <trkpt lat="45.28807" lon="6.21891">
        <ele>1145.218262</ele>
        <time>2019-07-24T09:30:32Z</time>
      </trkpt>
      <trkpt lat="45.28781" lon="6.21852">
        <ele>1146.686279</ele>
        <time>2019-07-24T09:30:46Z</time>
      </trkpt>
      <trkpt lat="45.28761" lon="6.21813">
        <ele>1147.373657</ele>
        <time>2019-07-24T09:30:59Z</time>
      </trkpt>
      <trkpt lat="45.28745" lon="6.21711">
        <ele>1139.694824</ele>
        <time>2019-07-24T09:31:27Z</time>
      </trkpt>
      <trkpt lat="45.28718" lon="6.21673">
        <ele>1139.962402</ele>
        <time>2019-07-24T09:31:43Z</time>
      </trkpt>
      <trkpt lat="45.28697" lon="6.2165">
        <ele>1142.269897</ele>
        <time>2019-07-24T09:31:56Z</time>
      </trkpt>
      <trkpt lat="45.28664" lon="6.21644">
        <ele>1147.85083</ele>
        <time>2019-07-24T09:32:12Z</time>
      </trkpt>
      <trkpt lat="45.28639" lon="6.21643">
        <ele>1153.252686</ele>
        <time>2019-07-24T09:32:24Z</time>
      </trkpt>
      <trkpt lat="45.28611" lon="6.21629">
        <ele>1157.722778</ele>
        <time>2019-07-24T09:32:37Z</time>
      </trkpt>
      <trkpt lat="45.28575" lon="6.21598">
        <ele>1157.935425</ele>
        <time>2019-07-24T09:32:54Z</time>
      </trkpt>
      <trkpt lat="45.28547" lon="6.2158">
        <ele>1163.590576</ele>
        <time>2019-07-24T09:33:06Z</time>
      </trkpt>
      <trkpt lat="45.28504" lon="6.21533">
        <ele>1164.056763</ele>
        <time>2019-07-24T04:34:14Z</time>
      </trkpt>
      <trkpt lat="45.28435" lon="6.2149">
        <ele>1174.750854</ele>
        <time>2019-07-24T04:34:54Z</time>
      </trkpt>
      <trkpt lat="45.28414" lon="6.2147">
        <ele>1176.345459</ele>
        <time>2019-07-24T04:35:09Z</time>
      </trkpt>
      <trkpt lat="45.28389" lon="6.2144">
        <ele>1177.464478</ele>
        <time>2019-07-24T04:35:28Z</time>
      </trkpt>
      <trkpt lat="45.28353" lon="6.21386">
        <ele>1177.061157</ele>
        <time>2019-07-24T04:35:59Z</time>
      </trkpt>
      <trkpt lat="45.28332" lon="6.21363">
        <ele>1178.206177</ele>
        <time>2019-07-24T04:36:15Z</time>
      </trkpt>
      <trkpt lat="45.28309" lon="6.21345">
        <ele>1180.213745</ele>
        <time>2019-07-24T04:36:30Z</time>
      </trkpt>
      <trkpt lat="45.28263" lon="6.21294">
        <ele>1184.288696</ele>
        <time>2019-07-24T04:37:02Z</time>
      </trkpt>
      <trkpt lat="45.28223" lon="6.21254">
        <ele>1189.265869</ele>
        <time>2019-07-24T04:37:30Z</time>
      </trkpt>
      <trkpt lat="45.2812" lon="6.21169">
        <ele>1199.600952</ele>
        <time>2019-07-24T04:38:44Z</time>
      </trkpt>
      <trkpt lat="45.28105" lon="6.21154">
        <ele>1200.560059</ele>
        <time>2019-07-24T04:38:53Z</time>
      </trkpt>
      <trkpt lat="45.28096" lon="6.21142">
        <ele>1200.737305</ele>
        <time>2019-07-24T04:39:00Z</time>
      </trkpt>
      <trkpt lat="45.28077" lon="6.21122">
        <ele>1201.344849</ele>
        <time>2019-07-24T04:39:14Z</time>
      </trkpt>
      <trkpt lat="45.28006" lon="6.21087">
        <ele>1206.493042</ele>
        <time>2019-07-24T04:39:56Z</time>
      </trkpt>
      <trkpt lat="45.27976" lon="6.21044">
        <ele>1210.275635</ele>
        <time>2019-07-24T04:40:25Z</time>
      </trkpt>
      <trkpt lat="45.27964" lon="6.21039">
        <ele>1211.535889</ele>
        <time>2019-07-24T04:40:35Z</time>
      </trkpt>
      <trkpt lat="45.27953" lon="6.21039">
        <ele>1212.160767</ele>
        <time>2019-07-24T04:40:45Z</time>
      </trkpt>
      <trkpt lat="45.27902" lon="6.2102">
        <ele>1221.915894</ele>
        <time>2019-07-24T04:41:20Z</time>
      </trkpt>
      <trkpt lat="45.27857" lon="6.20988">
        <ele>1229.733032</ele>
        <time>2019-07-24T04:41:53Z</time>
      </trkpt>
      <trkpt lat="45.27841" lon="6.20972">
        <ele>1231.752686</ele>
        <time>2019-07-24T04:42:06Z</time>
      </trkpt>
      <trkpt lat="45.27761" lon="6.20872">
        <ele>1242.530396</ele>
        <time>2019-07-24T04:43:17Z</time>
      </trkpt>
      <trkpt lat="45.27739" lon="6.20849">
        <ele>1241.842041</ele>
        <time>2019-07-24T04:43:37Z</time>
      </trkpt>
      <trkpt lat="45.27703" lon="6.20819">
        <ele>1243.578003</ele>
        <time>2019-07-24T04:44:06Z</time>
      </trkpt>
      <trkpt lat="45.27659" lon="6.20759">
        <ele>1253.904907</ele>
        <time>2019-07-24T04:44:46Z</time>
      </trkpt>
      <trkpt lat="45.27641" lon="6.20742">
        <ele>1255.129272</ele>
        <time>2019-07-24T04:45:00Z</time>
      </trkpt>
      <trkpt lat="45.27628" lon="6.20735">
        <ele>1254.591309</ele>
        <time>2019-07-24T04:45:10Z</time>
      </trkpt>
      <trkpt lat="45.27614" lon="6.20719">
        <ele>1254.2146</ele>
        <time>2019-07-24T04:45:22Z</time>
      </trkpt>
      <trkpt lat="45.27597" lon="6.20654">
        <ele>1260.680542</ele>
        <time>2019-07-24T04:45:55Z</time>
      </trkpt>
      <trkpt lat="45.27595" lon="6.20633">
        <ele>1262.681274</ele>
        <time>2019-07-24T04:46:04Z</time>
      </trkpt>
      <trkpt lat="45.27595" lon="6.20618">
        <ele>1265.05542</ele>
        <time>2019-07-24T04:46:11Z</time>
      </trkpt>
      <trkpt lat="45.27599" lon="6.20601">
        <ele>1268.349121</ele>
        <time>2019-07-24T04:46:19Z</time>
      </trkpt>
      <trkpt lat="45.2759" lon="6.20571">
        <ele>1271.177979</ele>
        <time>2019-07-24T04:46:37Z</time>
      </trkpt>
      <trkpt lat="45.27579" lon="6.20557">
        <ele>1271.299316</ele>
        <time>2019-07-24T04:46:44Z</time>
      </trkpt>
      <trkpt lat="45.27571" lon="6.20521">
        <ele>1276.371338</ele>
        <time>2019-07-24T04:47:02Z</time>
      </trkpt>
      <trkpt lat="45.27555" lon="6.20496">
        <ele>1277.785278</ele>
        <time>2019-07-24T04:47:19Z</time>
      </trkpt>
      <trkpt lat="45.27545" lon="6.20474">
        <ele>1279.755981</ele>
        <time>2019-07-24T04:47:34Z</time>
      </trkpt>
      <trkpt lat="45.27535" lon="6.20458">
        <ele>1279.03833</ele>
        <time>2019-07-24T04:47:47Z</time>
      </trkpt>
      <trkpt lat="45.27516" lon="6.20409">
        <ele>1284.520996</ele>
        <time>2019-07-24T04:48:07Z</time>
      </trkpt>
      <trkpt lat="45.27501" lon="6.20384">
        <ele>1284.229004</ele>
        <time>2019-07-24T04:48:21Z</time>
      </trkpt>
      <trkpt lat="45.27466" lon="6.20314">
        <ele>1293.346802</ele>
        <time>2019-07-24T04:49:03Z</time>
      </trkpt>
      <trkpt lat="45.27453" lon="6.203">
        <ele>1294.328491</ele>
        <time>2019-07-24T04:49:16Z</time>
      </trkpt>
      <trkpt lat="45.27429" lon="6.2028">
        <ele>1297.499146</ele>
        <time>2019-07-24T04:49:33Z</time>
      </trkpt>
      <trkpt lat="45.27372" lon="6.20203">
        <ele>1304.504272</ele>
        <time>2019-07-24T04:50:28Z</time>
      </trkpt>
      <trkpt lat="45.27362" lon="6.20196">
        <ele>1304.043457</ele>
        <time>2019-07-24T04:50:35Z</time>
      </trkpt>
      <trkpt lat="45.27352" lon="6.20193">
        <ele>1303.731201</ele>
        <time>2019-07-24T04:50:40Z</time>
      </trkpt>
      <trkpt lat="45.27319" lon="6.20196">
        <ele>1301.873779</ele>
        <time>2019-07-24T04:51:02Z</time>
      </trkpt>
      <trkpt lat="45.27297" lon="6.20185">
        <ele>1303.084351</ele>
        <time>2019-07-24T04:51:17Z</time>
      </trkpt>
      <trkpt lat="45.2728" lon="6.20171">
        <ele>1304.385742</ele>
        <time>2019-07-24T04:51:31Z</time>
      </trkpt>
      <trkpt lat="45.27245" lon="6.20089">
        <ele>1312.230835</ele>
        <time>2019-07-24T04:52:20Z</time>
      </trkpt>
      <trkpt lat="45.27227" lon="6.20069">
        <ele>1314.719849</ele>
        <time>2019-07-24T04:52:34Z</time>
      </trkpt>
      <trkpt lat="45.27192" lon="6.2004">
        <ele>1319.07373</ele>
        <time>2019-07-24T04:52:55Z</time>
      </trkpt>
      <trkpt lat="45.27182" lon="6.20038">
        <ele>1319.961304</ele>
        <time>2019-07-24T04:53:02Z</time>
      </trkpt>
      <trkpt lat="45.27177" lon="6.2004">
        <ele>1320.641235</ele>
        <time>2019-07-24T04:53:08Z</time>
      </trkpt>
      <trkpt lat="45.27159" lon="6.20055">
        <ele>1321.861572</ele>
        <time>2019-07-24T04:53:20Z</time>
      </trkpt>
      <trkpt lat="45.27142" lon="6.20076">
        <ele>1322.129395</ele>
        <time>2019-07-24T04:53:36Z</time>
      </trkpt>
      <trkpt lat="45.27125" lon="6.20086">
        <ele>1323.532715</ele>
        <time>2019-07-24T04:53:52Z</time>
      </trkpt>
      <trkpt lat="45.27066" lon="6.2003">
        <ele>1335.205811</ele>
        <time>2019-07-24T04:54:39Z</time>
      </trkpt>
      <trkpt lat="45.27034" lon="6.20015">
        <ele>1338.681274</ele>
        <time>2019-07-24T04:55:03Z</time>
      </trkpt>
      <trkpt lat="45.26965" lon="6.19997">
        <ele>1344.130005</ele>
        <time>2019-07-24T04:55:52Z</time>
      </trkpt>
      <trkpt lat="45.26958" lon="6.19974">
        <ele>1345.084961</ele>
        <time>2019-07-24T04:56:07Z</time>
      </trkpt>
      <trkpt lat="45.26972" lon="6.1995">
        <ele>1344.522461</ele>
        <time>2019-07-24T04:56:22Z</time>
      </trkpt>
      <trkpt lat="45.26974" lon="6.19923">
        <ele>1345.32251</ele>
        <time>2019-07-24T04:56:36Z</time>
      </trkpt>
      <trkpt lat="45.26962" lon="6.19908">
        <ele>1346.724487</ele>
        <time>2019-07-24T04:56:47Z</time>
      </trkpt>
      <trkpt lat="45.26951" lon="6.19879">
        <ele>1350.13501</ele>
        <time>2019-07-24T04:57:04Z</time>
      </trkpt>
      <trkpt lat="45.26944" lon="6.19847">
        <ele>1355.040039</ele>
        <time>2019-07-24T04:57:20Z</time>
      </trkpt>
      <trkpt lat="45.26935" lon="6.19834">
        <ele>1357.939941</ele>
        <time>2019-07-24T04:57:32Z</time>
      </trkpt>
      <trkpt lat="45.26926" lon="6.19795">
        <ele>1367.929932</ele>
        <time>2019-07-24T04:57:55Z</time>
      </trkpt>
      <trkpt lat="45.26903" lon="6.19788">
        <ele>1370.066284</ele>
        <time>2019-07-24T04:58:14Z</time>
      </trkpt>
      <trkpt lat="45.26871" lon="6.19791">
        <ele>1370.36499</ele>
        <time>2019-07-24T04:58:39Z</time>
      </trkpt>
      <trkpt lat="45.2685" lon="6.19797">
        <ele>1369.974976</ele>
        <time>2019-07-24T04:58:58Z</time>
      </trkpt>
      <trkpt lat="45.26822" lon="6.19795">
        <ele>1371.469604</ele>
        <time>2019-07-24T04:59:15Z</time>
      </trkpt>
      <trkpt lat="45.26804" lon="6.19784">
        <ele>1374.32666</ele>
        <time>2019-07-24T04:59:29Z</time>
      </trkpt>
      <trkpt lat="45.26797" lon="6.1977">
        <ele>1376.41626</ele>
        <time>2019-07-24T04:59:38Z</time>
      </trkpt>
      <trkpt lat="45.26798" lon="6.19745">
        <ele>1379.870728</ele>
        <time>2019-07-24T04:59:52Z</time>
      </trkpt>
      <trkpt lat="45.26796" lon="6.19739">
        <ele>1381.415649</ele>
        <time>2019-07-24T04:59:56Z</time>
      </trkpt>
      <trkpt lat="45.2678" lon="6.19722">
        <ele>1384.756714</ele>
        <time>2019-07-24T05:00:11Z</time>
      </trkpt>
      <trkpt lat="45.26734" lon="6.19722">
        <ele>1384.546753</ele>
        <time>2019-07-24T05:00:45Z</time>
      </trkpt>
      <trkpt lat="45.26692" lon="6.19702">
        <ele>1388.868896</ele>
        <time>2019-07-24T05:01:19Z</time>
      </trkpt>
      <trkpt lat="45.26688" lon="6.19693">
        <ele>1389.890015</ele>
        <time>2019-07-24T05:01:26Z</time>
      </trkpt>
      <trkpt lat="45.26691" lon="6.19662">
        <ele>1396.379639</ele>
        <time>2019-07-24T05:01:41Z</time>
      </trkpt>
      <trkpt lat="45.26685" lon="6.19647">
        <ele>1400.676758</ele>
        <time>2019-07-24T05:01:50Z</time>
      </trkpt>
      <trkpt lat="45.26664" lon="6.19637">
        <ele>1402.450562</ele>
        <time>2019-07-24T05:02:07Z</time>
      </trkpt>
      <trkpt lat="45.26599" lon="6.19617">
        <ele>1411.485718</ele>
        <time>2019-07-24T05:02:58Z</time>
      </trkpt>
      <trkpt lat="45.26581" lon="6.19606">
        <ele>1413.150024</ele>
        <time>2019-07-24T05:03:14Z</time>
      </trkpt>
      <trkpt lat="45.26557" lon="6.19602">
        <ele>1414.692139</ele>
        <time>2019-07-24T05:03:31Z</time>
      </trkpt>
      <trkpt lat="45.26548" lon="6.19615">
        <ele>1413.12146</ele>
        <time>2019-07-24T05:03:42Z</time>
      </trkpt>
      <trkpt lat="45.26527" lon="6.19663">
        <ele>1410.583496</ele>
        <time>2019-07-24T05:04:09Z</time>
      </trkpt>
      <trkpt lat="45.26521" lon="6.19689">
        <ele>1411.084961</ele>
        <time>2019-07-24T05:04:23Z</time>
      </trkpt>
      <trkpt lat="45.26524" lon="6.19697">
        <ele>1410.253174</ele>
        <time>2019-07-24T05:04:28Z</time>
      </trkpt>
      <trkpt lat="45.26547" lon="6.19719">
        <ele>1406.090576</ele>
        <time>2019-07-24T05:04:47Z</time>
      </trkpt>
      <trkpt lat="45.2655" lon="6.19728">
        <ele>1405.484619</ele>
        <time>2019-07-24T05:04:52Z</time>
      </trkpt>
      <trkpt lat="45.2655" lon="6.19733">
        <ele>1405.535767</ele>
        <time>2019-07-24T05:04:54Z</time>
      </trkpt>
      <trkpt lat="45.26542" lon="6.19734">
        <ele>1406.758667</ele>
        <time>2019-07-24T05:05:00Z</time>
      </trkpt>
      <trkpt lat="45.26521" lon="6.19712">
        <ele>1410.584595</ele>
        <time>2019-07-24T05:05:18Z</time>
      </trkpt>
      <trkpt lat="45.26478" lon="6.19689">
        <ele>1420.63855</ele>
        <time>2019-07-24T05:05:53Z</time>
      </trkpt>
      <trkpt lat="45.26375" lon="6.19616">
        <ele>1437.226196</ele>
        <time>2019-07-24T05:07:20Z</time>
      </trkpt>
      <trkpt lat="45.26327" lon="6.19594">
        <ele>1443.415405</ele>
        <time>2019-07-24T05:07:59Z</time>
      </trkpt>
      <trkpt lat="45.26303" lon="6.19579">
        <ele>1446.834961</ele>
        <time>2019-07-24T05:08:20Z</time>
      </trkpt>
      <trkpt lat="45.26296" lon="6.19569">
        <ele>1448.142456</ele>
        <time>2019-07-24T05:08:28Z</time>
      </trkpt>
      <trkpt lat="45.26282" lon="6.19575">
        <ele>1450.1875</ele>
        <time>2019-07-24T05:08:39Z</time>
      </trkpt>
      <trkpt lat="45.2627" lon="6.19607">
        <ele>1452.880493</ele>
        <time>2019-07-24T05:08:58Z</time>
      </trkpt>
      <trkpt lat="45.26249" lon="6.19626">
        <ele>1456.643188</ele>
        <time>2019-07-24T05:09:17Z</time>
      </trkpt>
      <trkpt lat="45.26228" lon="6.19639">
        <ele>1459.11499</ele>
        <time>2019-07-24T05:09:34Z</time>
      </trkpt>
      <trkpt lat="45.26213" lon="6.19655">
        <ele>1461.399902</ele>
        <time>2019-07-24T05:09:49Z</time>
      </trkpt>
      <trkpt lat="45.26192" lon="6.19651">
        <ele>1463.017578</ele>
        <time>2019-07-24T05:10:06Z</time>
      </trkpt>
      <trkpt lat="45.26176" lon="6.1962">
        <ele>1464.176636</ele>
        <time>2019-07-24T05:10:26Z</time>
      </trkpt>
      <trkpt lat="45.26165" lon="6.19591">
        <ele>1465.845459</ele>
        <time>2019-07-24T05:10:47Z</time>
      </trkpt>
      <trkpt lat="45.26133" lon="6.19535">
        <ele>1473.016479</ele>
        <time>2019-07-24T05:11:29Z</time>
      </trkpt>
      <trkpt lat="45.2612" lon="6.19505">
        <ele>1476.95105</ele>
        <time>2019-07-24T05:11:48Z</time>
      </trkpt>
      <trkpt lat="45.26105" lon="6.19435">
        <ele>1481.52002</ele>
        <time>2019-07-24T05:12:27Z</time>
      </trkpt>
      <trkpt lat="45.261" lon="6.1943">
        <ele>1482.39502</ele>
        <time>2019-07-24T05:12:32Z</time>
      </trkpt>
      <trkpt lat="45.26079" lon="6.19444">
        <ele>1485.299072</ele>
        <time>2019-07-24T05:12:48Z</time>
      </trkpt>
      <trkpt lat="45.26072" lon="6.19454">
        <ele>1486.456299</ele>
        <time>2019-07-24T05:12:55Z</time>
      </trkpt>
      <trkpt lat="45.26059" lon="6.19461">
        <ele>1488.523315</ele>
        <time>2019-07-24T05:13:07Z</time>
      </trkpt>
      <trkpt lat="45.25975" lon="6.19528">
        <ele>1499.139771</ele>
        <time>2019-07-24T05:14:21Z</time>
      </trkpt>
      <trkpt lat="45.25959" lon="6.19526">
        <ele>1501.828735</ele>
        <time>2019-07-24T05:14:34Z</time>
      </trkpt>
      <trkpt lat="45.25936" lon="6.19382">
        <ele>1509.61377</ele>
        <time>2019-07-24T05:15:52Z</time>
      </trkpt>
      <trkpt lat="45.25928" lon="6.19351">
        <ele>1512.043579</ele>
        <time>2019-07-24T05:16:10Z</time>
      </trkpt>
      <trkpt lat="45.25913" lon="6.19328">
        <ele>1514.7854</ele>
        <time>2019-07-24T05:16:29Z</time>
      </trkpt>
      <trkpt lat="45.25905" lon="6.19304">
        <ele>1516.073853</ele>
        <time>2019-07-24T05:16:45Z</time>
      </trkpt>
      <trkpt lat="45.25905" lon="6.19263">
        <ele>1517.047729</ele>
        <time>2019-07-24T05:17:04Z</time>
      </trkpt>
      <trkpt lat="45.25894" lon="6.1923">
        <ele>1519.92749</ele>
        <time>2019-07-24T05:17:20Z</time>
      </trkpt>
      <trkpt lat="45.2588" lon="6.19203">
        <ele>1522.425049</ele>
        <time>2019-07-24T05:17:35Z</time>
      </trkpt>
      <trkpt lat="45.2586" lon="6.19178">
        <ele>1526.018555</ele>
        <time>2019-07-24T05:17:52Z</time>
      </trkpt>
      <trkpt lat="45.25837" lon="6.19162">
        <ele>1528.897095</ele>
        <time>2019-07-24T05:18:08Z</time>
      </trkpt>
      <trkpt lat="45.25813" lon="6.19132">
        <ele>1531.38501</ele>
        <time>2019-07-24T05:18:28Z</time>
      </trkpt>
      <trkpt lat="45.25793" lon="6.19103">
        <ele>1532.605713</ele>
        <time>2019-07-24T05:18:46Z</time>
      </trkpt>
      <trkpt lat="45.25771" lon="6.19076">
        <ele>1532.319946</ele>
        <time>2019-07-24T05:19:04Z</time>
      </trkpt>
      <trkpt lat="45.25745" lon="6.19063">
        <ele>1533.170044</ele>
        <time>2019-07-24T05:19:22Z</time>
      </trkpt>
      <trkpt lat="45.25719" lon="6.19054">
        <ele>1534.878662</ele>
        <time>2019-07-24T05:19:41Z</time>
      </trkpt>
      <trkpt lat="45.25687" lon="6.1905">
        <ele>1538.015137</ele>
        <time>2019-07-24T05:20:04Z</time>
      </trkpt>
      <trkpt lat="45.25631" lon="6.19035">
        <ele>1543.779907</ele>
        <time>2019-07-24T05:20:43Z</time>
      </trkpt>
      <trkpt lat="45.25604" lon="6.19018">
        <ele>1547.573975</ele>
        <time>2019-07-24T05:21:04Z</time>
      </trkpt>
      <trkpt lat="45.25589" lon="6.19003">
        <ele>1549.435059</ele>
        <time>2019-07-24T05:21:17Z</time>
      </trkpt>
      <trkpt lat="45.2557" lon="6.1898">
        <ele>1551.237427</ele>
        <time>2019-07-24T05:21:37Z</time>
      </trkpt>
      <trkpt lat="45.25545" lon="6.18967">
        <ele>1555.288574</ele>
        <time>2019-07-24T05:21:56Z</time>
      </trkpt>
      <trkpt lat="45.25525" lon="6.18943">
        <ele>1557.851563</ele>
        <time>2019-07-24T05:22:15Z</time>
      </trkpt>
      <trkpt lat="45.2548" lon="6.1887">
        <ele>1563.174316</ele>
        <time>2019-07-24T05:23:07Z</time>
      </trkpt>
      <trkpt lat="45.25435" lon="6.18823">
        <ele>1571.519897</ele>
        <time>2019-07-24T05:23:48Z</time>
      </trkpt>
      <trkpt lat="45.25413" lon="6.18795">
        <ele>1575.295044</ele>
        <time>2019-07-24T05:24:10Z</time>
      </trkpt>
      <trkpt lat="45.25404" lon="6.18776">
        <ele>1575.98999</ele>
        <time>2019-07-24T05:24:22Z</time>
      </trkpt>
      <trkpt lat="45.25395" lon="6.18716">
        <ele>1571.748413</ele>
        <time>2019-07-24T05:24:54Z</time>
      </trkpt>
      <trkpt lat="45.25376" lon="6.18699">
        <ele>1574.972778</ele>
        <time>2019-07-24T05:25:11Z</time>
      </trkpt>
      <trkpt lat="45.2536" lon="6.18678">
        <ele>1577.277344</ele>
        <time>2019-07-24T05:25:28Z</time>
      </trkpt>
      <trkpt lat="45.25358" lon="6.18641">
        <ele>1572.210083</ele>
        <time>2019-07-24T05:25:46Z</time>
      </trkpt>
      <trkpt lat="45.25343" lon="6.18614">
        <ele>1571.959717</ele>
        <time>2019-07-24T05:26:04Z</time>
      </trkpt>
      <trkpt lat="45.25306" lon="6.18591">
        <ele>1580.418945</ele>
        <time>2019-07-24T05:26:31Z</time>
      </trkpt>
      <trkpt lat="45.2528" lon="6.18571">
        <ele>1586.754028</ele>
        <time>2019-07-24T05:26:51Z</time>
      </trkpt>
      <trkpt lat="45.25253" lon="6.18535">
        <ele>1590.501465</ele>
        <time>2019-07-24T05:27:17Z</time>
      </trkpt>
      <trkpt lat="45.25247" lon="6.185">
        <ele>1585.680054</ele>
        <time>2019-07-24T05:27:33Z</time>
      </trkpt>
      <trkpt lat="45.25242" lon="6.18454">
        <ele>1584.08252</ele>
        <time>2019-07-24T05:27:51Z</time>
      </trkpt>
      <trkpt lat="45.25232" lon="6.18403">
        <ele>1587.063599</ele>
        <time>2019-07-24T05:28:09Z</time>
      </trkpt>
      <trkpt lat="45.25222" lon="6.18333">
        <ele>1588.738892</ele>
        <time>2019-07-24T05:28:34Z</time>
      </trkpt>
      <trkpt lat="45.25192" lon="6.18261">
        <ele>1591.782959</ele>
        <time>2019-07-24T05:29:07Z</time>
      </trkpt>
      <trkpt lat="45.2517" lon="6.18217">
        <ele>1592.200195</ele>
        <time>2019-07-24T05:29:29Z</time>
      </trkpt>
      <trkpt lat="45.25101" lon="6.18169">
        <ele>1606.4729</ele>
        <time>2019-07-24T05:30:10Z</time>
      </trkpt>
      <trkpt lat="45.25071" lon="6.18143">
        <ele>1613.126343</ele>
        <time>2019-07-24T05:30:30Z</time>
      </trkpt>
      <trkpt lat="45.2505" lon="6.18094">
        <ele>1611.259277</ele>
        <time>2019-07-24T05:30:53Z</time>
      </trkpt>
      <trkpt lat="45.25011" lon="6.1804">
        <ele>1616.996704</ele>
        <time>2019-07-24T05:31:23Z</time>
      </trkpt>
      <trkpt lat="45.24986" lon="6.1801">
        <ele>1620.764893</ele>
        <time>2019-07-24T05:31:41Z</time>
      </trkpt>
      <trkpt lat="45.24965" lon="6.1797">
        <ele>1620.822998</ele>
        <time>2019-07-24T05:32:03Z</time>
      </trkpt>
      <trkpt lat="45.2495" lon="6.17929">
        <ele>1618.526001</ele>
        <time>2019-07-24T05:32:23Z</time>
      </trkpt>
      <trkpt lat="45.24938" lon="6.17884">
        <ele>1614.763794</ele>
        <time>2019-07-24T05:32:43Z</time>
      </trkpt>
      <trkpt lat="45.24914" lon="6.17852">
        <ele>1616.849365</ele>
        <time>2019-07-24T05:33:03Z</time>
      </trkpt>
      <trkpt lat="45.24854" lon="6.17808">
        <ele>1628.330811</ele>
        <time>2019-07-24T05:33:43Z</time>
      </trkpt>
      <trkpt lat="45.24831" lon="6.17781">
        <ele>1632.227539</ele>
        <time>2019-07-24T05:34:02Z</time>
      </trkpt>
      <trkpt lat="45.24792" lon="6.1769">
        <ele>1640.744507</ele>
        <time>2019-07-24T05:34:58Z</time>
      </trkpt>
      <trkpt lat="45.24776" lon="6.17662">
        <ele>1642.054688</ele>
        <time>2019-07-24T05:35:18Z</time>
      </trkpt>
      <trkpt lat="45.24713" lon="6.17581">
        <ele>1649.184692</ele>
        <time>2019-07-24T05:36:22Z</time>
      </trkpt>
      <trkpt lat="45.24706" lon="6.17577">
        <ele>1650.11438</ele>
        <time>2019-07-24T05:36:27Z</time>
      </trkpt>
      <trkpt lat="45.24667" lon="6.17568">
        <ele>1658.527466</ele>
        <time>2019-07-24T05:36:59Z</time>
      </trkpt>
      <trkpt lat="45.24647" lon="6.17548">
        <ele>1660.150635</ele>
        <time>2019-07-24T05:37:17Z</time>
      </trkpt>
      <trkpt lat="45.24638" lon="6.17546">
        <ele>1662.460327</ele>
        <time>2019-07-24T05:37:24Z</time>
      </trkpt>
      <trkpt lat="45.24634" lon="6.17552">
        <ele>1664.720947</ele>
        <time>2019-07-24T05:37:28Z</time>
      </trkpt>
      <trkpt lat="45.2464" lon="6.17576">
        <ele>1667.459961</ele>
        <time>2019-07-24T05:37:42Z</time>
      </trkpt>
      <trkpt lat="45.24653" lon="6.17601">
        <ele>1668.329956</ele>
        <time>2019-07-24T05:37:57Z</time>
      </trkpt>
      <trkpt lat="45.24682" lon="6.17702">
        <ele>1674.974487</ele>
        <time>2019-07-24T05:38:52Z</time>
      </trkpt>
      <trkpt lat="45.24686" lon="6.17727">
        <ele>1676.603516</ele>
        <time>2019-07-24T05:39:05Z</time>
      </trkpt>
      <trkpt lat="45.24684" lon="6.17729">
        <ele>1677.537964</ele>
        <time>2019-07-24T05:39:07Z</time>
      </trkpt>
      <trkpt lat="45.24679" lon="6.17728">
        <ele>1678.963379</ele>
        <time>2019-07-24T05:39:11Z</time>
      </trkpt>
      <trkpt lat="45.24659" lon="6.17698">
        <ele>1681.520508</ele>
        <time>2019-07-24T05:39:34Z</time>
      </trkpt>
      <trkpt lat="45.24577" lon="6.17647">
        <ele>1698.036377</ele>
        <time>2019-07-24T05:40:43Z</time>
      </trkpt>
      <trkpt lat="45.24559" lon="6.17626">
        <ele>1699.829956</ele>
        <time>2019-07-24T05:41:01Z</time>
      </trkpt>
      <trkpt lat="45.24535" lon="6.17613">
        <ele>1704.637939</ele>
        <time>2019-07-24T05:41:21Z</time>
      </trkpt>
      <trkpt lat="45.24519" lon="6.17581">
        <ele>1704.44397</ele>
        <time>2019-07-24T05:41:43Z</time>
      </trkpt>
      <trkpt lat="45.24495" lon="6.1757">
        <ele>1712.896362</ele>
        <time>2019-07-24T05:42:02Z</time>
      </trkpt>
      <trkpt lat="45.24466" lon="6.17516">
        <ele>1713.358154</ele>
        <time>2019-07-24T05:42:39Z</time>
      </trkpt>
      <trkpt lat="45.2441" lon="6.17466">
        <ele>1726.037842</ele>
        <time>2019-07-24T05:43:31Z</time>
      </trkpt>
      <trkpt lat="45.24387" lon="6.17426">
        <ele>1728.017456</ele>
        <time>2019-07-24T05:43:59Z</time>
      </trkpt>
      <trkpt lat="45.24385" lon="6.17416">
        <ele>1727.055054</ele>
        <time>2019-07-24T05:44:05Z</time>
      </trkpt>
      <trkpt lat="45.24363" lon="6.17382">
        <ele>1731.666138</ele>
        <time>2019-07-24T05:44:30Z</time>
      </trkpt>
      <trkpt lat="45.24324" lon="6.17349">
        <ele>1743.867798</ele>
        <time>2019-07-24T05:45:04Z</time>
      </trkpt>
      <trkpt lat="45.24313" lon="6.17319">
        <ele>1744.33728</ele>
        <time>2019-07-24T05:45:23Z</time>
      </trkpt>
      <trkpt lat="45.24298" lon="6.17294">
        <ele>1748.416626</ele>
        <time>2019-07-24T05:45:42Z</time>
      </trkpt>
      <trkpt lat="45.24279" lon="6.17238">
        <ele>1752.326538</ele>
        <time>2019-07-24T05:46:16Z</time>
      </trkpt>
      <trkpt lat="45.2426" lon="6.17132">
        <ele>1761.878052</ele>
        <time>2019-07-24T05:47:17Z</time>
      </trkpt>
      <trkpt lat="45.24256" lon="6.17092">
        <ele>1764.702148</ele>
        <time>2019-07-24T05:47:40Z</time>
      </trkpt>
      <trkpt lat="45.24264" lon="6.17022">
        <ele>1764.579468</ele>
        <time>2019-07-24T05:48:17Z</time>
      </trkpt>
      <trkpt lat="45.24262" lon="6.17019">
        <ele>1766.322876</ele>
        <time>2019-07-24T05:48:20Z</time>
      </trkpt>
      <trkpt lat="45.24246" lon="6.17028">
        <ele>1773.133179</ele>
        <time>2019-07-24T05:48:35Z</time>
      </trkpt>
      <trkpt lat="45.24239" lon="6.17074">
        <ele>1774.663574</ele>
        <time>2019-07-24T05:48:57Z</time>
      </trkpt>
      <trkpt lat="45.24231" lon="6.17107">
        <ele>1779.602051</ele>
        <time>2019-07-24T05:49:14Z</time>
      </trkpt>
      <trkpt lat="45.24226" lon="6.17139">
        <ele>1784.401855</ele>
        <time>2019-07-24T05:49:31Z</time>
      </trkpt>
      <trkpt lat="45.24225" lon="6.1717">
        <ele>1786.022339</ele>
        <time>2019-07-24T05:49:47Z</time>
      </trkpt>
      <trkpt lat="45.2423" lon="6.17229">
        <ele>1784.431274</ele>
        <time>2019-07-24T05:50:19Z</time>
      </trkpt>
      <trkpt lat="45.24218" lon="6.17252">
        <ele>1794.483154</ele>
        <time>2019-07-24T05:50:36Z</time>
      </trkpt>
      <trkpt lat="45.24216" lon="6.17279">
        <ele>1797.616089</ele>
        <time>2019-07-24T05:50:52Z</time>
      </trkpt>
      <trkpt lat="45.24233" lon="6.17345">
        <ele>1799.349976</ele>
        <time>2019-07-24T05:51:30Z</time>
      </trkpt>
      <trkpt lat="45.24238" lon="6.17378">
        <ele>1801.987549</ele>
        <time>2019-07-24T05:51:48Z</time>
      </trkpt>
      <trkpt lat="45.24239" lon="6.17409">
        <ele>1808.520142</ele>
        <time>2019-07-24T05:52:04Z</time>
      </trkpt>
      <trkpt lat="45.24242" lon="6.17418">
        <ele>1809.275513</ele>
        <time>2019-07-24T05:52:09Z</time>
      </trkpt>
      <trkpt lat="45.24261" lon="6.17438">
        <ele>1805.492432</ele>
        <time>2019-07-24T05:52:25Z</time>
      </trkpt>
      <trkpt lat="45.24276" lon="6.17464">
        <ele>1804.175781</ele>
        <time>2019-07-24T05:52:43Z</time>
      </trkpt>
      <trkpt lat="45.24284" lon="6.1749">
        <ele>1806.184326</ele>
        <time>2019-07-24T05:52:59Z</time>
      </trkpt>
      <trkpt lat="45.24284" lon="6.17515">
        <ele>1812.122437</ele>
        <time>2019-07-24T05:53:13Z</time>
      </trkpt>
      <trkpt lat="45.24294" lon="6.17557">
        <ele>1816.381714</ele>
        <time>2019-07-24T05:53:37Z</time>
      </trkpt>
      <trkpt lat="45.24293" lon="6.1756">
        <ele>1817.84729</ele>
        <time>2019-07-24T05:53:39Z</time>
      </trkpt>
      <trkpt lat="45.24288" lon="6.17559">
        <ele>1820.06604</ele>
        <time>2019-07-24T05:53:43Z</time>
      </trkpt>
      <trkpt lat="45.24273" lon="6.17501">
        <ele>1814.961548</ele>
        <time>2019-07-24T05:54:15Z</time>
      </trkpt>
      <trkpt lat="45.24268" lon="6.17491">
        <ele>1815.315918</ele>
        <time>2019-07-24T05:54:21Z</time>
      </trkpt>
      <trkpt lat="45.24251" lon="6.17469">
        <ele>1819.078979</ele>
        <time>2019-07-24T05:54:38Z</time>
      </trkpt>
      <trkpt lat="45.2423" lon="6.17461">
        <ele>1826.326538</ele>
        <time>2019-07-24T05:54:55Z</time>
      </trkpt>
      <trkpt lat="45.24206" lon="6.17456">
        <ele>1835.122314</ele>
        <time>2019-07-24T05:55:13Z</time>
      </trkpt>
      <trkpt lat="45.24188" lon="6.17433">
        <ele>1838.195679</ele>
        <time>2019-07-24T05:55:31Z</time>
      </trkpt>
      <trkpt lat="45.24175" lon="6.17379">
        <ele>1837.836304</ele>
        <time>2019-07-24T05:56:03Z</time>
      </trkpt>
      <trkpt lat="45.24164" lon="6.17367">
        <ele>1842.944946</ele>
        <time>2019-07-24T05:56:14Z</time>
      </trkpt>
      <trkpt lat="45.24158" lon="6.17367">
        <ele>1845.525024</ele>
        <time>2019-07-24T05:56:18Z</time>
      </trkpt>
      <trkpt lat="45.24151" lon="6.17378">
        <ele>1848.827515</ele>
        <time>2019-07-24T05:56:24Z</time>
      </trkpt>
      <trkpt lat="45.24149" lon="6.17425">
        <ele>1853.022705</ele>
        <time>2019-07-24T05:56:42Z</time>
      </trkpt>
      <trkpt lat="45.24155" lon="6.17457">
        <ele>1854.140259</ele>
        <time>2019-07-24T05:56:58Z</time>
      </trkpt>
      <trkpt lat="45.24169" lon="6.17483">
        <ele>1853.597168</ele>
        <time>2019-07-24T05:57:15Z</time>
      </trkpt>
      <trkpt lat="45.24179" lon="6.17517">
        <ele>1856.908936</ele>
        <time>2019-07-24T05:57:34Z</time>
      </trkpt>
      <trkpt lat="45.24185" lon="6.17552">
        <ele>1861.946411</ele>
        <time>2019-07-24T05:57:52Z</time>
      </trkpt>
      <trkpt lat="45.24196" lon="6.1758">
        <ele>1863.990967</ele>
        <time>2019-07-24T05:58:06Z</time>
      </trkpt>
      <trkpt lat="45.24216" lon="6.17607">
        <ele>1861.932495</ele>
        <time>2019-07-24T05:58:23Z</time>
      </trkpt>
      <trkpt lat="45.24225" lon="6.17643">
        <ele>1865.084961</ele>
        <time>2019-07-24T05:58:42Z</time>
      </trkpt>
      <trkpt lat="45.24228" lon="6.17683">
        <ele>1872.579956</ele>
        <time>2019-07-24T05:59:02Z</time>
      </trkpt>
      <trkpt lat="45.24235" lon="6.17713">
        <ele>1877.222046</ele>
        <time>2019-07-24T05:59:19Z</time>
      </trkpt>
      <trkpt lat="45.24256" lon="6.17738">
        <ele>1876.50293</ele>
        <time>2019-07-24T05:59:38Z</time>
      </trkpt>
      <trkpt lat="45.24283" lon="6.17807">
        <ele>1886.042114</ele>
        <time>2019-07-24T06:00:19Z</time>
      </trkpt>
      <trkpt lat="45.2428" lon="6.17816">
        <ele>1889.555908</ele>
        <time>2019-07-24T06:00:24Z</time>
      </trkpt>
      <trkpt lat="45.24274" lon="6.17815">
        <ele>1890.910645</ele>
        <time>2019-07-24T06:00:28Z</time>
      </trkpt>
      <trkpt lat="45.24262" lon="6.17789">
        <ele>1887.199829</ele>
        <time>2019-07-24T06:00:42Z</time>
      </trkpt>
      <trkpt lat="45.24243" lon="6.17764">
        <ele>1886.787598</ele>
        <time>2019-07-24T06:00:58Z</time>
      </trkpt>
      <trkpt lat="45.24222" lon="6.17748">
        <ele>1889.910156</ele>
        <time>2019-07-24T06:01:14Z</time>
      </trkpt>
      <trkpt lat="45.24201" lon="6.17726">
        <ele>1891.756226</ele>
        <time>2019-07-24T06:01:33Z</time>
      </trkpt>
      <trkpt lat="45.24164" lon="6.17679">
        <ele>1895.433838</ele>
        <time>2019-07-24T06:02:08Z</time>
      </trkpt>
      <trkpt lat="45.24138" lon="6.17662">
        <ele>1901.121582</ele>
        <time>2019-07-24T06:02:30Z</time>
      </trkpt>
      <trkpt lat="45.24115" lon="6.17651">
        <ele>1906.731201</ele>
        <time>2019-07-24T06:02:46Z</time>
      </trkpt>
      <trkpt lat="45.24095" lon="6.17628">
        <ele>1908.137451</ele>
        <time>2019-07-24T06:03:03Z</time>
      </trkpt>
      <trkpt lat="45.24053" lon="6.17595">
        <ele>1915.039307</ele>
        <time>2019-07-24T06:03:37Z</time>
      </trkpt>
      <trkpt lat="45.24032" lon="6.17575">
        <ele>1919.035034</ele>
        <time>2019-07-24T06:03:52Z</time>
      </trkpt>
      <trkpt lat="45.24012" lon="6.17564">
        <ele>1921.454224</ele>
        <time>2019-07-24T06:04:07Z</time>
      </trkpt>
      <trkpt lat="45.23958" lon="6.1755">
        <ele>1925.264282</ele>
        <time>2019-07-24T06:04:53Z</time>
      </trkpt>
      <trkpt lat="45.23961" lon="6.17547">
        <ele>1925.18042</ele>
        <time>2019-07-24T06:18:41Z</time>
      </trkpt>
      <trkpt lat="45.2394" lon="6.17574">
        <ele>1925.081543</ele>
        <time>2019-07-24T06:18:55Z</time>
      </trkpt>
      <trkpt lat="45.23934" lon="6.17611">
        <ele>1923.244263</ele>
        <time>2019-07-24T06:19:00Z</time>
      </trkpt>
      <trkpt lat="45.23926" lon="6.17626">
        <ele>1920.49585</ele>
        <time>2019-07-24T06:19:02Z</time>
      </trkpt>
      <trkpt lat="45.23908" lon="6.17651">
        <ele>1914.532959</ele>
        <time>2019-07-24T06:19:05Z</time>
      </trkpt>
      <trkpt lat="45.239" lon="6.1767">
        <ele>1911.384521</ele>
        <time>2019-07-24T06:19:07Z</time>
      </trkpt>
      <trkpt lat="45.23898" lon="6.17683">
        <ele>1910.515015</ele>
        <time>2019-07-24T06:19:08Z</time>
      </trkpt>
      <trkpt lat="45.23897" lon="6.17724">
        <ele>1910.476929</ele>
        <time>2019-07-24T06:19:11Z</time>
      </trkpt>
      <trkpt lat="45.23892" lon="6.17751">
        <ele>1908.408447</ele>
        <time>2019-07-24T06:19:13Z</time>
      </trkpt>
      <trkpt lat="45.23877" lon="6.17803">
        <ele>1901.39856</ele>
        <time>2019-07-24T06:19:19Z</time>
      </trkpt>
      <trkpt lat="45.23877" lon="6.17818">
        <ele>1901.117065</ele>
        <time>2019-07-24T06:19:21Z</time>
      </trkpt>
      <trkpt lat="45.239" lon="6.17937">
        <ele>1914.44104</ele>
        <time>2019-07-24T06:19:55Z</time>
      </trkpt>
      <trkpt lat="45.23901" lon="6.17982">
        <ele>1915.106812</ele>
        <time>2019-07-24T06:20:11Z</time>
      </trkpt>
      <trkpt lat="45.23906" lon="6.1804">
        <ele>1918.636719</ele>
        <time>2019-07-24T06:20:31Z</time>
      </trkpt>
      <trkpt lat="45.23915" lon="6.18102">
        <ele>1926.276978</ele>
        <time>2019-07-24T06:20:53Z</time>
      </trkpt>
      <trkpt lat="45.23912" lon="6.1816">
        <ele>1926.377808</ele>
        <time>2019-07-24T06:21:12Z</time>
      </trkpt>
      <trkpt lat="45.23898" lon="6.18214">
        <ele>1922.51709</ele>
        <time>2019-07-24T06:21:31Z</time>
      </trkpt>
      <trkpt lat="45.23895" lon="6.18274">
        <ele>1925.61499</ele>
        <time>2019-07-24T06:21:52Z</time>
      </trkpt>
      <trkpt lat="45.23897" lon="6.1833">
        <ele>1929.125122</ele>
        <time>2019-07-24T06:22:13Z</time>
      </trkpt>
      <trkpt lat="45.23896" lon="6.18385">
        <ele>1929.800781</ele>
        <time>2019-07-24T06:22:32Z</time>
      </trkpt>
      <trkpt lat="45.23891" lon="6.18446">
        <ele>1929.268066</ele>
        <time>2019-07-24T06:22:53Z</time>
      </trkpt>
      <trkpt lat="45.23911" lon="6.18492">
        <ele>1938.844727</ele>
        <time>2019-07-24T06:23:11Z</time>
      </trkpt>
      <trkpt lat="45.23924" lon="6.18547">
        <ele>1948.077393</ele>
        <time>2019-07-24T06:23:31Z</time>
      </trkpt>
      <trkpt lat="45.23911" lon="6.18569">
        <ele>1946.9552</ele>
        <time>2019-07-24T06:23:43Z</time>
      </trkpt>
      <trkpt lat="45.23871" lon="6.18585">
        <ele>1944.292725</ele>
        <time>2019-07-24T06:24:07Z</time>
      </trkpt>
      <trkpt lat="45.23841" lon="6.18627">
        <ele>1949.37854</ele>
        <time>2019-07-24T06:24:29Z</time>
      </trkpt>
      <trkpt lat="45.23798" lon="6.18739">
        <ele>1956.420044</ele>
        <time>2019-07-24T06:25:13Z</time>
      </trkpt>
      <trkpt lat="45.23771" lon="6.18791">
        <ele>1955.005981</ele>
        <time>2019-07-24T06:25:34Z</time>
      </trkpt>
      <trkpt lat="45.23756" lon="6.18856">
        <ele>1961.45813</ele>
        <time>2019-07-24T06:25:55Z</time>
      </trkpt>
      <trkpt lat="45.23723" lon="6.18966">
        <ele>1968.604614</ele>
        <time>2019-07-24T06:26:32Z</time>
      </trkpt>
      <trkpt lat="45.23697" lon="6.19075">
        <ele>1977.838745</ele>
        <time>2019-07-24T06:27:10Z</time>
      </trkpt>
      <trkpt lat="45.23667" lon="6.19122">
        <ele>1977.970703</ele>
        <time>2019-07-24T06:27:30Z</time>
      </trkpt>
      <trkpt lat="45.23576" lon="6.19254">
        <ele>1987.107544</ele>
        <time>2019-07-24T06:28:33Z</time>
      </trkpt>
      <trkpt lat="45.23543" lon="6.19289">
        <ele>1991.982056</ele>
        <time>2019-07-24T06:28:53Z</time>
      </trkpt>
      <trkpt lat="45.23462" lon="6.1932">
        <ele>1988.90564</ele>
        <time>2019-07-24T06:29:29Z</time>
      </trkpt>
      <trkpt lat="45.23417" lon="6.19327">
        <ele>1981.044067</ele>
        <time>2019-07-24T06:29:49Z</time>
      </trkpt>
      <trkpt lat="45.23384" lon="6.19426">
        <ele>1992.530273</ele>
        <time>2019-07-24T06:30:24Z</time>
      </trkpt>
      <trkpt lat="45.23345" lon="6.19515">
        <ele>2001.091064</ele>
        <time>2019-07-24T06:30:59Z</time>
      </trkpt>
      <trkpt lat="45.23335" lon="6.19552">
        <ele>2004.703247</ele>
        <time>2019-07-24T06:31:13Z</time>
      </trkpt>
      <trkpt lat="45.23329" lon="6.19606">
        <ele>2011.690552</ele>
        <time>2019-07-24T06:31:32Z</time>
      </trkpt>
      <trkpt lat="45.23313" lon="6.19658">
        <ele>2016.733154</ele>
        <time>2019-07-24T06:31:53Z</time>
      </trkpt>
      <trkpt lat="45.2328" lon="6.19708">
        <ele>2020.322876</ele>
        <time>2019-07-24T06:32:18Z</time>
      </trkpt>
      <trkpt lat="45.23251" lon="6.19749">
        <ele>2018.698364</ele>
        <time>2019-07-24T06:32:50Z</time>
      </trkpt>
      <trkpt lat="45.2317" lon="6.19853">
        <ele>2022.234375</ele>
      </trkpt>
      <trkpt lat="45.23062" lon="6.20074">
        <ele>2020.968872</ele>
        <time>2019-07-24T06:32:53Z</time>
      </trkpt>
      <trkpt lat="45.23042" lon="6.201">
        <ele>2043.1953125</ele>
      </trkpt>
      <trkpt lat="45.23054" lon="6.20083">
        <ele>2041.80859375</ele>
      </trkpt>
      <trkpt lat="45.23023" lon="6.2013">
        <ele>2044.5</ele>
      </trkpt>
      <trkpt lat="45.22975" lon="6.20195">
        <ele>2048.90625</ele>
      </trkpt>
      <trkpt lat="45.22961" lon="6.20213">
        <ele>2053.30859375</ele>
      </trkpt>
      <trkpt lat="45.22945" lon="6.2022">
        <ele>2053.7890625</ele>
      </trkpt>
      <trkpt lat="45.22926" lon="6.20222">
        <ele>2051.92578125</ele>
      </trkpt>
      <trkpt lat="45.22902" lon="6.20227">
        <ele>2051.015625</ele>
      </trkpt>
      <trkpt lat="45.2288" lon="6.20232">
        <ele>2052.375</ele>
      </trkpt>
      <trkpt lat="45.2286" lon="6.20238">
        <ele>2053.96875</ele>
      </trkpt>
      <trkpt lat="45.22849" lon="6.20242">
        <ele>2054.75390625</ele>
      </trkpt>
      <trkpt lat="45.22811" lon="6.20255">
        <ele>2058.66015625</ele>
      </trkpt>
      <trkpt lat="45.22781" lon="6.20268">
        <ele>2062.14453125</ele>
      </trkpt>
      <trkpt lat="45.2276" lon="6.20289">
        <ele>2063.23046875</ele>
      </trkpt>
      <trkpt lat="45.22751" lon="6.20322">
        <ele>2061.546875</ele>
      </trkpt>
      <trkpt lat="45.22748" lon="6.20355">
        <ele>2060.56640625</ele>
      </trkpt>
      <trkpt lat="45.22739" lon="6.20366">
        <ele>2059.6875</ele>
      </trkpt>
    </trkseg>
  </trk>
</gpx>